UAE1DM OMDB-EDDM
Flight info
| Callsign | UAE1DM |
|---|---|
| Flight time | 6h 43m |
| Altitude | 34000 |
| Route | KUTLI L519 ATUDO M318 GOLGU M550 RIBOT DCT MIGMA DCT ITRUX Y511 PMA Z712 WEJ L677 CVO L617 TANSA UL613 KOR DCT DIMIS DCT VRANA DCT NIVES DCT GORPA DCT RASTA DCT REDBU Q112 NAPSA NAPSA1B |
| Aircraft | B77W/H-SDE1E2E3FGHIJ2J3J4J5M1RWXY/LB1D1 |
Departure
| Time | 2026-05-07 04:01 |
|---|---|
| Airport | Dubai International Airport (OMDB) |
Arrival
| Time | 2026-05-07 10:44 |
|---|---|
| Airport | Munich Airport (EDDM) |
| Time | Latitude | Longitude | Altitude | Speed | Heading |
|---|---|---|---|---|---|
| 2026-05-07 03:05 | 25.24376 | 55.36935 | 26 ft | 0 kts | 31° |
| 2026-05-07 03:40 | 25.24375 | 55.36934 | 31 ft | 2 kts | 31° |
| 2026-05-07 03:40 | 25.24358 | 55.36923 | 28 ft | 3 kts | 31° |
| 2026-05-07 03:40 | 25.24341 | 55.36911 | 31 ft | 3 kts | 31° |
| 2026-05-07 03:41 | 25.24326 | 55.36901 | 31 ft | 3 kts | 35° |
| 2026-05-07 03:41 | 25.24311 | 55.36887 | 31 ft | 3 kts | 60° |
| 2026-05-07 03:41 | 25.24305 | 55.36868 | 31 ft | 3 kts | 93° |
| 2026-05-07 03:41 | 25.24307 | 55.36854 | 31 ft | 3 kts | 111° |
| 2026-05-07 03:42 | 25.24319 | 55.36829 | 31 ft | 3 kts | 122° |
| 2026-05-07 03:42 | 25.24329 | 55.36809 | 31 ft | 3 kts | 122° |
| 2026-05-07 03:42 | 25.24336 | 55.36798 | 31 ft | 1 kts | 122° |
| 2026-05-07 03:45 | 25.24311 | 55.36841 | 31 ft | 10 kts | 122° |
| 2026-05-07 03:45 | 25.24276 | 55.36905 | 30 ft | 10 kts | 121° |
| 2026-05-07 03:46 | 25.24240 | 55.36969 | 27 ft | 10 kts | 122° |
| 2026-05-07 03:46 | 25.24205 | 55.37032 | 29 ft | 10 kts | 122° |
| 2026-05-07 03:46 | 25.24172 | 55.37089 | 29 ft | 8 kts | 122° |
| 2026-05-07 03:46 | 25.24142 | 55.37143 | 29 ft | 8 kts | 122° |
| 2026-05-07 03:47 | 25.24111 | 55.37197 | 29 ft | 8 kts | 121° |
| 2026-05-07 03:47 | 25.24082 | 55.37251 | 29 ft | 8 kts | 122° |
| 2026-05-07 03:47 | 25.24044 | 55.37319 | 31 ft | 13 kts | 122° |
| 2026-05-07 03:47 | 25.23991 | 55.37413 | 31 ft | 14 kts | 120° |
| 2026-05-07 03:48 | 25.23966 | 55.37510 | 26 ft | 13 kts | 87° |
| 2026-05-07 03:48 | 25.24007 | 55.37600 | 28 ft | 13 kts | 43° |
| 2026-05-07 03:48 | 25.24082 | 55.37654 | 29 ft | 12 kts | 32° |
| 2026-05-07 03:48 | 25.24155 | 55.37702 | 29 ft | 12 kts | 30° |
| 2026-05-07 03:49 | 25.24215 | 55.37752 | 31 ft | 9 kts | 60° |
| 2026-05-07 03:49 | 25.24206 | 55.37820 | 29 ft | 9 kts | 118° |
| 2026-05-07 03:49 | 25.24171 | 55.37882 | 29 ft | 10 kts | 122° |
| 2026-05-07 03:49 | 25.24127 | 55.37960 | 29 ft | 14 kts | 121° |
| 2026-05-07 03:50 | 25.24072 | 55.38060 | 30 ft | 17 kts | 121° |
| 2026-05-07 03:50 | 25.24005 | 55.38178 | 29 ft | 19 kts | 122° |
| 2026-05-07 03:50 | 25.23937 | 55.38299 | 30 ft | 19 kts | 122° |
| 2026-05-07 03:50 | 25.23872 | 55.38416 | 30 ft | 13 kts | 122° |
| 2026-05-07 03:51 | 25.23869 | 55.38503 | 31 ft | 12 kts | 46° |
| 2026-05-07 03:51 | 25.23940 | 55.38557 | 27 ft | 12 kts | 32° |
| 2026-05-07 03:51 | 25.24014 | 55.38608 | 28 ft | 12 kts | 31° |
| 2026-05-07 03:51 | 25.24088 | 55.38657 | 29 ft | 12 kts | 31° |
| 2026-05-07 03:52 | 25.24162 | 55.38706 | 28 ft | 13 kts | 25° |
| 2026-05-07 03:52 | 25.24234 | 55.38671 | 27 ft | 13 kts | 305° |
| 2026-05-07 03:52 | 25.24282 | 55.38590 | 27 ft | 13 kts | 301° |
| 2026-05-07 03:52 | 25.24328 | 55.38507 | 27 ft | 13 kts | 302° |
| 2026-05-07 03:53 | 25.24374 | 55.38425 | 27 ft | 13 kts | 301° |
| 2026-05-07 03:53 | 25.24420 | 55.38343 | 27 ft | 13 kts | 302° |
| 2026-05-07 03:53 | 25.24467 | 55.38260 | 27 ft | 13 kts | 301° |
| 2026-05-07 03:53 | 25.24513 | 55.38178 | 27 ft | 13 kts | 302° |
| 2026-05-07 03:54 | 25.24559 | 55.38096 | 28 ft | 13 kts | 301° |
| 2026-05-07 03:54 | 25.24607 | 55.38046 | 28 ft | 9 kts | 351° |
| 2026-05-07 03:54 | 25.24632 | 55.38052 | 28 ft | 0 kts | 24° |
| 2026-05-07 03:58 | 25.24636 | 55.38054 | 28 ft | 2 kts | 25° |
| 2026-05-07 03:59 | 25.24665 | 55.38071 | 29 ft | 7 kts | 28° |
| 2026-05-07 03:59 | 25.24718 | 55.38105 | 30 ft | 10 kts | 31° |
| 2026-05-07 03:59 | 25.24765 | 55.38094 | 31 ft | 9 kts | 308° |
| 2026-05-07 03:59 | 25.24771 | 55.38084 | 31 ft | 0 kts | 304° |
| 2026-05-07 04:00 | 25.24834 | 55.37974 | 30 ft | 41 kts | 302° |
| 2026-05-07 04:00 | 25.25120 | 55.37459 | 32 ft | 114 kts | 301° |
| 2026-05-07 04:01 | 25.25652 | 55.36499 | 29 ft | 176 kts | 301° |
| 2026-05-07 04:01 | 25.26368 | 55.35223 | 205 ft | 207 kts | 300° |
| 2026-05-07 04:01 | 25.27101 | 55.33896 | 927 ft | 197 kts | 299° |
| 2026-05-07 04:01 | 25.27824 | 55.32560 | 1382 ft | 210 kts | 297° |
| 2026-05-07 04:02 | 25.28615 | 55.31102 | 1681 ft | 227 kts | 298° |
| 2026-05-07 04:02 | 25.29255 | 55.29510 | 2082 ft | 229 kts | 271° |
| 2026-05-07 04:02 | 25.28932 | 55.27826 | 2558 ft | 226 kts | 242° |
| 2026-05-07 04:02 | 25.28215 | 55.26267 | 3049 ft | 230 kts | 244° |
| 2026-05-07 04:03 | 25.27535 | 55.24685 | 3653 ft | 230 kts | 245° |
| 2026-05-07 04:03 | 25.26844 | 55.23067 | 4274 ft | 230 kts | 245° |
| 2026-05-07 04:03 | 25.26167 | 55.21480 | 4833 ft | 233 kts | 246° |
| 2026-05-07 04:03 | 25.25473 | 55.19852 | 5389 ft | 235 kts | 246° |
| 2026-05-07 04:04 | 25.24776 | 55.18215 | 5951 ft | 237 kts | 246° |
| 2026-05-07 04:04 | 25.24068 | 55.16556 | 6504 ft | 240 kts | 245° |
| 2026-05-07 04:04 | 25.23244 | 55.14878 | 6722 ft | 260 kts | 241° |
| 2026-05-07 04:04 | 25.22301 | 55.13102 | 7069 ft | 273 kts | 240° |
| 2026-05-07 04:05 | 25.21326 | 55.11256 | 7552 ft | 283 kts | 240° |
| 2026-05-07 04:05 | 25.20332 | 55.09364 | 8143 ft | 287 kts | 241° |
| 2026-05-07 04:05 | 25.19441 | 55.07363 | 8652 ft | 293 kts | 248° |
| 2026-05-07 04:05 | 25.18681 | 55.05250 | 9209 ft | 300 kts | 250° |
| 2026-05-07 04:06 | 25.17921 | 55.03088 | 9823 ft | 303 kts | 249° |
| 2026-05-07 04:06 | 25.17131 | 55.00907 | 10323 ft | 310 kts | 248° |
| 2026-05-07 04:06 | 25.16290 | 54.98630 | 10496 ft | 331 kts | 248° |
| 2026-05-07 04:06 | 25.15366 | 54.96223 | 10610 ft | 348 kts | 243° |
| 2026-05-07 04:07 | 25.13849 | 54.94079 | 10721 ft | 366 kts | 217° |
| 2026-05-07 04:07 | 25.11544 | 54.92811 | 10899 ft | 379 kts | 191° |
| 2026-05-07 04:07 | 25.08906 | 54.92613 | 11230 ft | 383 kts | 176° |
| 2026-05-07 04:07 | 25.06214 | 54.92688 | 11679 ft | 391 kts | 176° |
| 2026-05-07 04:08 | 25.03480 | 54.92717 | 12317 ft | 394 kts | 177° |
| 2026-05-07 04:08 | 25.00744 | 54.92776 | 13005 ft | 394 kts | 174° |
| 2026-05-07 04:08 | 24.97989 | 54.92964 | 13669 ft | 397 kts | 172° |
| 2026-05-07 04:08 | 24.95261 | 54.93186 | 14243 ft | 400 kts | 173° |
| 2026-05-07 04:09 | 24.92481 | 54.93394 | 14843 ft | 402 kts | 174° |
| 2026-05-07 04:09 | 24.89683 | 54.93586 | 15456 ft | 404 kts | 174° |
| 2026-05-07 04:09 | 24.86875 | 54.93611 | 15937 ft | 406 kts | 186° |
| 2026-05-07 04:09 | 24.84165 | 54.92642 | 16369 ft | 414 kts | 208° |
| 2026-05-07 04:10 | 24.81692 | 54.91027 | 16831 ft | 416 kts | 209° |
| 2026-05-07 04:10 | 24.79159 | 54.89457 | 17413 ft | 419 kts | 207° |
| 2026-05-07 04:10 | 24.76598 | 54.87932 | 18117 ft | 418 kts | 207° |
| 2026-05-07 04:10 | 24.74027 | 54.86412 | 18702 ft | 419 kts | 208° |
| 2026-05-07 04:11 | 24.71452 | 54.84883 | 19213 ft | 422 kts | 208° |
| 2026-05-07 04:11 | 24.68859 | 54.83339 | 19701 ft | 426 kts | 208° |
| 2026-05-07 04:11 | 24.66269 | 54.81738 | 20209 ft | 429 kts | 210° |
| 2026-05-07 04:11 | 24.63685 | 54.80077 | 20734 ft | 431 kts | 211° |
| 2026-05-07 04:12 | 24.61095 | 54.78400 | 21261 ft | 433 kts | 211° |
| 2026-05-07 04:12 | 24.58488 | 54.76720 | 21784 ft | 436 kts | 211° |
| 2026-05-07 04:12 | 24.55855 | 54.75036 | 22272 ft | 439 kts | 210° |
| 2026-05-07 04:12 | 24.53202 | 54.73345 | 22735 ft | 443 kts | 211° |
| 2026-05-07 04:13 | 24.50552 | 54.71633 | 23245 ft | 445 kts | 211° |
| 2026-05-07 04:13 | 24.47886 | 54.69893 | 23722 ft | 447 kts | 211° |
| 2026-05-07 04:13 | 24.45211 | 54.68149 | 24160 ft | 448 kts | 212° |
| 2026-05-07 04:13 | 24.42523 | 54.66406 | 24586 ft | 450 kts | 211° |
| 2026-05-07 04:14 | 24.39808 | 54.64682 | 25003 ft | 452 kts | 211° |
| 2026-05-07 04:14 | 24.37078 | 54.62962 | 25409 ft | 454 kts | 211° |
| 2026-05-07 04:14 | 24.34334 | 54.61230 | 25825 ft | 456 kts | 211° |
| 2026-05-07 04:14 | 24.31581 | 54.59488 | 26228 ft | 458 kts | 212° |
| 2026-05-07 04:15 | 24.28820 | 54.57734 | 26629 ft | 459 kts | 212° |
| 2026-05-07 04:15 | 24.26182 | 54.55774 | 27004 ft | 460 kts | 221° |
| 2026-05-07 04:15 | 24.23913 | 54.53311 | 27371 ft | 460 kts | 231° |
| 2026-05-07 04:15 | 24.22012 | 54.50490 | 27802 ft | 460 kts | 238° |
| 2026-05-07 04:16 | 24.20422 | 54.47456 | 28184 ft | 461 kts | 242° |
| 2026-05-07 04:16 | 24.18908 | 54.44402 | 28544 ft | 463 kts | 242° |
| 2026-05-07 04:16 | 24.17344 | 54.41302 | 28909 ft | 465 kts | 242° |
| 2026-05-07 04:16 | 24.15764 | 54.38206 | 29269 ft | 467 kts | 241° |
| 2026-05-07 04:17 | 24.14171 | 54.35101 | 29641 ft | 468 kts | 241° |
| 2026-05-07 04:17 | 24.12571 | 54.31987 | 29978 ft | 470 kts | 241° |
| 2026-05-07 04:17 | 24.10968 | 54.28872 | 30304 ft | 470 kts | 241° |
| 2026-05-07 04:17 | 24.09367 | 54.25761 | 30718 ft | 468 kts | 241° |
| 2026-05-07 04:18 | 24.07774 | 54.22666 | 31149 ft | 466 kts | 241° |
| 2026-05-07 04:18 | 24.06189 | 54.19587 | 31573 ft | 464 kts | 241° |
| 2026-05-07 04:18 | 24.04605 | 54.16511 | 31947 ft | 463 kts | 241° |
| 2026-05-07 04:18 | 24.03027 | 54.13446 | 32316 ft | 462 kts | 241° |
| 2026-05-07 04:19 | 24.01451 | 54.10389 | 32704 ft | 461 kts | 241° |
| 2026-05-07 04:19 | 23.99880 | 54.07345 | 33085 ft | 459 kts | 241° |
| 2026-05-07 04:19 | 23.98301 | 54.04306 | 33461 ft | 458 kts | 241° |
| 2026-05-07 04:19 | 23.96714 | 54.01291 | 33792 ft | 458 kts | 240° |
| 2026-05-07 04:20 | 23.95115 | 53.98267 | 33841 ft | 463 kts | 240° |
| 2026-05-07 04:20 | 23.91897 | 53.92189 | 33860 ft | 458 kts | 240° |
| 2026-05-07 04:21 | 23.87141 | 53.83194 | 33869 ft | 454 kts | 240° |
| 2026-05-07 04:21 | 23.83980 | 53.77217 | 33868 ft | 454 kts | 240° |
| 2026-05-07 04:22 | 23.80817 | 53.71245 | 33872 ft | 455 kts | 240° |
| 2026-05-07 04:22 | 23.77638 | 53.65251 | 33874 ft | 456 kts | 240° |
| 2026-05-07 04:23 | 23.74455 | 53.59254 | 33866 ft | 458 kts | 240° |
| 2026-05-07 04:23 | 23.71276 | 53.53273 | 33879 ft | 459 kts | 240° |
| 2026-05-07 04:24 | 23.68074 | 53.47244 | 33881 ft | 460 kts | 240° |
| 2026-05-07 04:24 | 23.64851 | 53.41160 | 33880 ft | 460 kts | 240° |
| 2026-05-07 04:25 | 23.61667 | 53.35154 | 33882 ft | 460 kts | 240° |
| 2026-05-07 04:25 | 23.58439 | 53.29075 | 33879 ft | 460 kts | 240° |
| 2026-05-07 04:26 | 23.55252 | 53.23081 | 33881 ft | 460 kts | 240° |
| 2026-05-07 04:26 | 23.52045 | 53.17059 | 33881 ft | 459 kts | 240° |
| 2026-05-07 04:27 | 23.48839 | 53.11043 | 33884 ft | 459 kts | 240° |
| 2026-05-07 04:27 | 23.46170 | 53.06041 | 33884 ft | 459 kts | 240° |
| 2026-05-07 04:28 | 23.42964 | 53.00037 | 33888 ft | 459 kts | 240° |
| 2026-05-07 04:28 | 23.39761 | 52.94026 | 33884 ft | 459 kts | 241° |
| 2026-05-07 04:29 | 23.36650 | 52.87970 | 33886 ft | 459 kts | 241° |
| 2026-05-07 04:29 | 23.33553 | 52.81898 | 33886 ft | 459 kts | 241° |
| 2026-05-07 04:30 | 23.30447 | 52.75841 | 33885 ft | 459 kts | 241° |
| 2026-05-07 04:30 | 23.27327 | 52.69782 | 33886 ft | 459 kts | 241° |
| 2026-05-07 04:31 | 23.24207 | 52.63730 | 33882 ft | 459 kts | 241° |
| 2026-05-07 04:31 | 23.21082 | 52.57673 | 33882 ft | 459 kts | 241° |
| 2026-05-07 04:32 | 23.18071 | 52.51558 | 33879 ft | 459 kts | 246° |
| 2026-05-07 04:32 | 23.15913 | 52.45037 | 33887 ft | 459 kts | 251° |
| 2026-05-07 04:33 | 23.13868 | 52.38458 | 33888 ft | 459 kts | 251° |
| 2026-05-07 04:33 | 23.11778 | 52.31900 | 33883 ft | 459 kts | 250° |
| 2026-05-07 04:34 | 23.09684 | 52.25345 | 33885 ft | 460 kts | 251° |
| 2026-05-07 04:34 | 23.07603 | 52.18822 | 33884 ft | 460 kts | 251° |
| 2026-05-07 04:35 | 23.05508 | 52.12260 | 33883 ft | 460 kts | 251° |
| 2026-05-07 04:35 | 23.03414 | 52.05711 | 33883 ft | 459 kts | 250° |
| 2026-05-07 04:36 | 23.01316 | 51.99157 | 33878 ft | 459 kts | 250° |
| 2026-05-07 04:36 | 22.99215 | 51.92610 | 33884 ft | 459 kts | 250° |
| 2026-05-07 04:37 | 22.97114 | 51.86068 | 33882 ft | 459 kts | 250° |
| 2026-05-07 04:37 | 22.95010 | 51.79531 | 33889 ft | 459 kts | 251° |
| 2026-05-07 04:38 | 22.92905 | 51.73000 | 33885 ft | 459 kts | 250° |
| 2026-05-07 04:38 | 22.90797 | 51.66468 | 33885 ft | 459 kts | 250° |
| 2026-05-07 04:39 | 22.88686 | 51.59936 | 33889 ft | 459 kts | 250° |
| 2026-05-07 04:39 | 22.86572 | 51.53408 | 33885 ft | 459 kts | 250° |
| 2026-05-07 04:40 | 22.84859 | 51.46746 | 33884 ft | 459 kts | 259° |
| 2026-05-07 04:40 | 22.84186 | 51.39864 | 33885 ft | 460 kts | 268° |
| 2026-05-07 04:41 | 22.84156 | 51.32977 | 33875 ft | 460 kts | 269° |
| 2026-05-07 04:41 | 22.84149 | 51.26038 | 33884 ft | 460 kts | 269° |
| 2026-05-07 04:42 | 22.84119 | 51.19099 | 33891 ft | 460 kts | 269° |
| 2026-05-07 04:42 | 22.84072 | 51.12158 | 33890 ft | 461 kts | 268° |
| 2026-05-07 04:43 | 22.84016 | 51.05205 | 33890 ft | 461 kts | 268° |
| 2026-05-07 04:43 | 22.83958 | 50.98256 | 33892 ft | 461 kts | 268° |
| 2026-05-07 04:44 | 22.83897 | 50.91301 | 33893 ft | 461 kts | 268° |
| 2026-05-07 04:44 | 22.83833 | 50.84360 | 33896 ft | 461 kts | 268° |
| 2026-05-07 04:45 | 22.83767 | 50.77420 | 33895 ft | 460 kts | 268° |
| 2026-05-07 04:45 | 22.83697 | 50.70485 | 33895 ft | 460 kts | 268° |
| 2026-05-07 04:46 | 22.83625 | 50.63562 | 33901 ft | 459 kts | 268° |
| 2026-05-07 04:46 | 22.83549 | 50.56641 | 33897 ft | 459 kts | 268° |
| 2026-05-07 04:47 | 22.83471 | 50.49725 | 33902 ft | 459 kts | 268° |
| 2026-05-07 04:47 | 22.83390 | 50.42813 | 33903 ft | 458 kts | 268° |
| 2026-05-07 04:48 | 22.83306 | 50.35907 | 33904 ft | 458 kts | 268° |
| 2026-05-07 04:48 | 22.83219 | 50.29041 | 33901 ft | 458 kts | 268° |
| 2026-05-07 04:49 | 22.83129 | 50.22133 | 33899 ft | 458 kts | 268° |
| 2026-05-07 04:49 | 22.83036 | 50.15231 | 33898 ft | 458 kts | 268° |
| 2026-05-07 04:50 | 22.82940 | 50.08325 | 33900 ft | 458 kts | 268° |
| 2026-05-07 04:50 | 22.82841 | 50.01426 | 33903 ft | 458 kts | 268° |
| 2026-05-07 04:51 | 22.82739 | 49.94527 | 33906 ft | 458 kts | 268° |
| 2026-05-07 04:51 | 22.82634 | 49.87619 | 33900 ft | 458 kts | 268° |
| 2026-05-07 04:52 | 22.82526 | 49.80725 | 33904 ft | 457 kts | 268° |
| 2026-05-07 04:52 | 22.82416 | 49.73833 | 33894 ft | 457 kts | 268° |
| 2026-05-07 04:53 | 22.82302 | 49.66941 | 33900 ft | 457 kts | 268° |
| 2026-05-07 04:53 | 22.82186 | 49.60059 | 33901 ft | 457 kts | 268° |
| 2026-05-07 04:54 | 22.82066 | 49.53175 | 33904 ft | 457 kts | 268° |
| 2026-05-07 04:54 | 22.81944 | 49.46292 | 33914 ft | 456 kts | 268° |
| 2026-05-07 04:55 | 22.81819 | 49.39421 | 33899 ft | 455 kts | 268° |
| 2026-05-07 04:55 | 22.81692 | 49.32619 | 33903 ft | 454 kts | 268° |
| 2026-05-07 04:56 | 22.81562 | 49.25788 | 33903 ft | 452 kts | 268° |
| 2026-05-07 04:56 | 22.81429 | 49.18980 | 33904 ft | 452 kts | 268° |
| 2026-05-07 04:57 | 22.81294 | 49.12182 | 33904 ft | 451 kts | 268° |
| 2026-05-07 04:57 | 22.81155 | 49.05376 | 33909 ft | 451 kts | 268° |
| 2026-05-07 04:58 | 22.81014 | 48.98600 | 33906 ft | 451 kts | 268° |
| 2026-05-07 04:58 | 22.80870 | 48.91802 | 33909 ft | 451 kts | 268° |
| 2026-05-07 04:59 | 22.80723 | 48.85001 | 33910 ft | 451 kts | 267° |
| 2026-05-07 04:59 | 22.80574 | 48.78200 | 33914 ft | 451 kts | 267° |
| 2026-05-07 05:00 | 22.80421 | 48.71400 | 33910 ft | 452 kts | 267° |
| 2026-05-07 05:00 | 22.80265 | 48.64593 | 33930 ft | 452 kts | 267° |
| 2026-05-07 05:01 | 22.80107 | 48.57789 | 33920 ft | 451 kts | 267° |
| 2026-05-07 05:01 | 22.79946 | 48.51000 | 33909 ft | 450 kts | 267° |
| 2026-05-07 05:02 | 22.79782 | 48.44235 | 33913 ft | 449 kts | 267° |
| 2026-05-07 05:02 | 22.79616 | 48.37488 | 33916 ft | 448 kts | 267° |
| 2026-05-07 05:03 | 22.79449 | 48.30791 | 33915 ft | 447 kts | 267° |
| 2026-05-07 05:03 | 22.79278 | 48.24067 | 33921 ft | 446 kts | 267° |
| 2026-05-07 05:04 | 22.79104 | 48.17345 | 33922 ft | 446 kts | 267° |
| 2026-05-07 05:04 | 22.78927 | 48.10615 | 33929 ft | 447 kts | 267° |
| 2026-05-07 05:05 | 22.78748 | 48.03879 | 33919 ft | 447 kts | 267° |
| 2026-05-07 05:05 | 22.78565 | 47.97146 | 33920 ft | 448 kts | 266° |
| 2026-05-07 05:06 | 22.78380 | 47.90403 | 33934 ft | 448 kts | 266° |
| 2026-05-07 05:06 | 22.78191 | 47.83647 | 33930 ft | 448 kts | 266° |
| 2026-05-07 05:07 | 22.78000 | 47.76897 | 33937 ft | 448 kts | 266° |
| 2026-05-07 05:07 | 22.77806 | 47.70161 | 33937 ft | 447 kts | 266° |
| 2026-05-07 05:08 | 22.77610 | 47.63430 | 33932 ft | 446 kts | 266° |
| 2026-05-07 05:08 | 22.77411 | 47.56712 | 33939 ft | 445 kts | 266° |
| 2026-05-07 05:09 | 22.77209 | 47.50014 | 33941 ft | 445 kts | 266° |
| 2026-05-07 05:09 | 22.77005 | 47.43319 | 33946 ft | 444 kts | 266° |
| 2026-05-07 05:10 | 22.76799 | 47.36622 | 33949 ft | 444 kts | 266° |
| 2026-05-07 05:10 | 22.76590 | 47.29937 | 33947 ft | 444 kts | 266° |
| 2026-05-07 05:11 | 22.76378 | 47.23243 | 33963 ft | 445 kts | 266° |
| 2026-05-07 05:11 | 22.76262 | 47.16543 | 33958 ft | 446 kts | 270° |
| 2026-05-07 05:12 | 22.76798 | 47.09832 | 33962 ft | 447 kts | 272° |
| 2026-05-07 05:12 | 22.77360 | 47.03121 | 33973 ft | 447 kts | 272° |
| 2026-05-07 05:13 | 22.77810 | 46.97541 | 33965 ft | 447 kts | 272° |
| 2026-05-07 05:13 | 22.78340 | 46.90848 | 33958 ft | 445 kts | 271° |
| 2026-05-07 05:14 | 22.78863 | 46.84175 | 33971 ft | 444 kts | 271° |
| 2026-05-07 05:14 | 22.79383 | 46.77521 | 33963 ft | 443 kts | 271° |
| 2026-05-07 05:15 | 22.79899 | 46.70871 | 33966 ft | 442 kts | 271° |
| 2026-05-07 05:15 | 22.80413 | 46.64232 | 33989 ft | 442 kts | 271° |
| 2026-05-07 05:16 | 22.80923 | 46.57592 | 33977 ft | 442 kts | 271° |
| 2026-05-07 05:16 | 22.81431 | 46.50950 | 33983 ft | 442 kts | 271° |
| 2026-05-07 05:17 | 22.81937 | 46.44306 | 33984 ft | 442 kts | 271° |
| 2026-05-07 05:17 | 22.82438 | 46.37670 | 33984 ft | 442 kts | 271° |
| 2026-05-07 05:18 | 22.82930 | 46.31038 | 33982 ft | 441 kts | 271° |
| 2026-05-07 05:18 | 22.83416 | 46.24419 | 33973 ft | 440 kts | 271° |
| 2026-05-07 05:19 | 22.83899 | 46.17815 | 33981 ft | 439 kts | 271° |
| 2026-05-07 05:19 | 22.84377 | 46.11255 | 33973 ft | 439 kts | 271° |
| 2026-05-07 05:20 | 22.84855 | 46.04649 | 33971 ft | 441 kts | 271° |
| 2026-05-07 05:20 | 22.85336 | 45.97978 | 33972 ft | 441 kts | 271° |
| 2026-05-07 05:21 | 22.86045 | 45.88050 | 33975 ft | 444 kts | 270° |
| 2026-05-07 05:22 | 22.86519 | 45.81367 | 33970 ft | 445 kts | 270° |
| 2026-05-07 05:22 | 22.86991 | 45.74673 | 33971 ft | 446 kts | 270° |
| 2026-05-07 05:23 | 22.87461 | 45.67968 | 33975 ft | 446 kts | 270° |
| 2026-05-07 05:23 | 22.87930 | 45.61252 | 33975 ft | 446 kts | 270° |
| 2026-05-07 05:24 | 22.88395 | 45.54541 | 33978 ft | 446 kts | 270° |
| 2026-05-07 05:24 | 22.88857 | 45.47836 | 33974 ft | 446 kts | 270° |
| 2026-05-07 05:25 | 22.89315 | 45.41134 | 33983 ft | 445 kts | 270° |
| 2026-05-07 05:25 | 22.89769 | 45.34450 | 33990 ft | 444 kts | 270° |
| 2026-05-07 05:26 | 22.90216 | 45.27851 | 33969 ft | 440 kts | 270° |
| 2026-05-07 05:26 | 22.90659 | 45.21249 | 33974 ft | 437 kts | 270° |
| 2026-05-07 05:27 | 22.91096 | 45.14696 | 33979 ft | 434 kts | 270° |
| 2026-05-07 05:27 | 22.91530 | 45.08164 | 33982 ft | 434 kts | 270° |
| 2026-05-07 05:28 | 22.91960 | 45.01640 | 33984 ft | 434 kts | 270° |
| 2026-05-07 05:28 | 22.92391 | 44.95085 | 33988 ft | 436 kts | 270° |
| 2026-05-07 05:29 | 22.92820 | 44.88513 | 33976 ft | 437 kts | 270° |
| 2026-05-07 05:29 | 22.93250 | 44.81917 | 33985 ft | 438 kts | 270° |
| 2026-05-07 05:30 | 22.93673 | 44.75318 | 33975 ft | 439 kts | 270° |
| 2026-05-07 05:30 | 22.94228 | 44.68712 | 33982 ft | 442 kts | 275° |
| 2026-05-07 05:31 | 22.95654 | 44.62201 | 33973 ft | 447 kts | 283° |
| 2026-05-07 05:31 | 22.97656 | 44.55812 | 33982 ft | 446 kts | 283° |
| 2026-05-07 05:32 | 22.99653 | 44.49440 | 33972 ft | 445 kts | 283° |
| 2026-05-07 05:32 | 23.01623 | 44.43085 | 33976 ft | 444 kts | 283° |
| 2026-05-07 05:33 | 23.03577 | 44.36741 | 33979 ft | 443 kts | 283° |
| 2026-05-07 05:33 | 23.05524 | 44.30405 | 33980 ft | 442 kts | 283° |
| 2026-05-07 05:34 | 23.07466 | 44.24077 | 33979 ft | 441 kts | 283° |
| 2026-05-07 05:34 | 23.09404 | 44.17750 | 33982 ft | 441 kts | 283° |
| 2026-05-07 05:35 | 23.11338 | 44.11426 | 33984 ft | 441 kts | 283° |
| 2026-05-07 05:35 | 23.13265 | 44.05117 | 33976 ft | 442 kts | 283° |
| 2026-05-07 05:36 | 23.15197 | 43.98784 | 33994 ft | 442 kts | 283° |
| 2026-05-07 05:36 | 23.17126 | 43.92447 | 33992 ft | 442 kts | 283° |
| 2026-05-07 05:37 | 23.19041 | 43.86149 | 33978 ft | 441 kts | 283° |
| 2026-05-07 05:37 | 23.20964 | 43.79810 | 33987 ft | 441 kts | 283° |
| 2026-05-07 05:38 | 23.22881 | 43.73485 | 33994 ft | 441 kts | 283° |
| 2026-05-07 05:38 | 23.24798 | 43.67149 | 33988 ft | 441 kts | 283° |
| 2026-05-07 05:39 | 23.26711 | 43.60817 | 34013 ft | 441 kts | 282° |
| 2026-05-07 05:39 | 23.28621 | 43.54479 | 34004 ft | 441 kts | 282° |
| 2026-05-07 05:40 | 23.30525 | 43.48143 | 34009 ft | 440 kts | 282° |
| 2026-05-07 05:40 | 23.32412 | 43.41855 | 34023 ft | 440 kts | 282° |
| 2026-05-07 05:41 | 23.34308 | 43.35523 | 34019 ft | 440 kts | 282° |
| 2026-05-07 05:41 | 23.36213 | 43.29150 | 34022 ft | 440 kts | 282° |
| 2026-05-07 05:42 | 23.38089 | 43.22867 | 34023 ft | 439 kts | 282° |
| 2026-05-07 05:42 | 23.39973 | 43.16546 | 34029 ft | 439 kts | 282° |
| 2026-05-07 05:43 | 23.41850 | 43.10228 | 34034 ft | 438 kts | 282° |
| 2026-05-07 05:43 | 23.43714 | 43.03917 | 34034 ft | 438 kts | 282° |
| 2026-05-07 05:44 | 23.45576 | 42.97602 | 34044 ft | 438 kts | 282° |
| 2026-05-07 05:44 | 23.47434 | 42.91291 | 34039 ft | 437 kts | 282° |
| 2026-05-07 05:45 | 23.49288 | 42.84985 | 34050 ft | 437 kts | 282° |
| 2026-05-07 05:45 | 23.51142 | 42.78670 | 34035 ft | 437 kts | 282° |
| 2026-05-07 05:46 | 23.52994 | 42.72367 | 34027 ft | 437 kts | 282° |
| 2026-05-07 05:46 | 23.54854 | 42.66072 | 34037 ft | 437 kts | 282° |
| 2026-05-07 05:47 | 23.56718 | 42.59761 | 34037 ft | 437 kts | 282° |
| 2026-05-07 05:47 | 23.58578 | 42.53441 | 34039 ft | 438 kts | 282° |
| 2026-05-07 05:48 | 23.60436 | 42.47120 | 34041 ft | 438 kts | 282° |
| 2026-05-07 05:48 | 23.62291 | 42.40795 | 34032 ft | 438 kts | 282° |
| 2026-05-07 05:49 | 23.64146 | 42.34459 | 34039 ft | 439 kts | 281° |
| 2026-05-07 05:49 | 23.65990 | 42.28151 | 34033 ft | 439 kts | 281° |
| 2026-05-07 05:50 | 23.67826 | 42.21800 | 34034 ft | 439 kts | 281° |
| 2026-05-07 05:50 | 23.69655 | 42.15436 | 34045 ft | 440 kts | 281° |
| 2026-05-07 05:51 | 23.71485 | 42.09065 | 34047 ft | 440 kts | 281° |
| 2026-05-07 05:51 | 23.73317 | 42.02681 | 34046 ft | 441 kts | 281° |
| 2026-05-07 05:52 | 23.75151 | 41.96300 | 34059 ft | 441 kts | 281° |
| 2026-05-07 05:52 | 23.77009 | 41.89921 | 34049 ft | 441 kts | 281° |
| 2026-05-07 05:53 | 23.78863 | 41.83544 | 34048 ft | 441 kts | 281° |
| 2026-05-07 05:53 | 23.80712 | 41.77166 | 34063 ft | 440 kts | 281° |
| 2026-05-07 05:54 | 23.82549 | 41.70785 | 34049 ft | 440 kts | 281° |
| 2026-05-07 05:54 | 23.84376 | 41.64414 | 34050 ft | 439 kts | 281° |
| 2026-05-07 05:55 | 23.86199 | 41.58053 | 34052 ft | 439 kts | 281° |
| 2026-05-07 05:55 | 23.88018 | 41.51694 | 34061 ft | 438 kts | 281° |
| 2026-05-07 05:56 | 23.89832 | 41.45330 | 34051 ft | 438 kts | 281° |
| 2026-05-07 05:56 | 23.91642 | 41.38973 | 34050 ft | 438 kts | 281° |
| 2026-05-07 05:57 | 23.93452 | 41.32603 | 34065 ft | 439 kts | 281° |
| 2026-05-07 05:57 | 23.95260 | 41.26229 | 34058 ft | 440 kts | 281° |
| 2026-05-07 05:58 | 23.97067 | 41.19843 | 34039 ft | 440 kts | 281° |
| 2026-05-07 05:58 | 23.98875 | 41.13448 | 34047 ft | 440 kts | 281° |
| 2026-05-07 05:59 | 24.00374 | 41.08132 | 34032 ft | 440 kts | 281° |
| 2026-05-07 05:59 | 24.02176 | 41.01735 | 34032 ft | 440 kts | 281° |
| 2026-05-07 06:00 | 24.03977 | 40.95329 | 34027 ft | 440 kts | 280° |
| 2026-05-07 06:00 | 24.05772 | 40.88929 | 34041 ft | 440 kts | 281° |
| 2026-05-07 06:01 | 24.07566 | 40.82518 | 34033 ft | 441 kts | 281° |
| 2026-05-07 06:01 | 24.09356 | 40.76109 | 34029 ft | 441 kts | 281° |
| 2026-05-07 06:02 | 24.11146 | 40.69688 | 34025 ft | 441 kts | 281° |
| 2026-05-07 06:02 | 24.12933 | 40.63270 | 34020 ft | 441 kts | 281° |
| 2026-05-07 06:03 | 24.14716 | 40.56854 | 34015 ft | 441 kts | 280° |
| 2026-05-07 06:03 | 24.16712 | 40.50484 | 34013 ft | 446 kts | 287° |
| 2026-05-07 06:04 | 24.19558 | 40.44389 | 34023 ft | 451 kts | 290° |
| 2026-05-07 06:04 | 24.22500 | 40.38318 | 34012 ft | 451 kts | 290° |
| 2026-05-07 06:05 | 24.25420 | 40.32234 | 34011 ft | 451 kts | 290° |
| 2026-05-07 06:05 | 24.28325 | 40.26149 | 34006 ft | 450 kts | 290° |
| 2026-05-07 06:06 | 24.31205 | 40.20103 | 34012 ft | 450 kts | 290° |
| 2026-05-07 06:06 | 24.34119 | 40.13980 | 33998 ft | 450 kts | 290° |
| 2026-05-07 06:07 | 24.37006 | 40.07905 | 33994 ft | 449 kts | 290° |
| 2026-05-07 06:07 | 24.39890 | 40.01830 | 34018 ft | 449 kts | 290° |
| 2026-05-07 06:08 | 24.42750 | 39.95797 | 34001 ft | 448 kts | 290° |
| 2026-05-07 06:08 | 24.45622 | 39.89731 | 34013 ft | 447 kts | 290° |
| 2026-05-07 06:09 | 24.48486 | 39.83672 | 34016 ft | 447 kts | 290° |
| 2026-05-07 06:09 | 24.51353 | 39.77601 | 34033 ft | 448 kts | 289° |
| 2026-05-07 06:10 | 24.54668 | 39.71738 | 34020 ft | 462 kts | 301° |
| 2026-05-07 06:10 | 24.59233 | 39.66735 | 34020 ft | 477 kts | 314° |
| 2026-05-07 06:11 | 24.64639 | 39.62432 | 33991 ft | 480 kts | 316° |
| 2026-05-07 06:11 | 24.70088 | 39.58189 | 33994 ft | 480 kts | 316° |
| 2026-05-07 06:12 | 24.75512 | 39.53904 | 33990 ft | 480 kts | 315° |
| 2026-05-07 06:12 | 24.80923 | 39.49580 | 33987 ft | 481 kts | 315° |
| 2026-05-07 06:13 | 24.86339 | 39.45239 | 33992 ft | 482 kts | 315° |
| 2026-05-07 06:13 | 24.91769 | 39.40883 | 33981 ft | 483 kts | 315° |
| 2026-05-07 06:14 | 24.97212 | 39.36516 | 33977 ft | 483 kts | 315° |
| 2026-05-07 06:14 | 25.02645 | 39.32152 | 33987 ft | 484 kts | 315° |
| 2026-05-07 06:15 | 25.08085 | 39.27778 | 33979 ft | 484 kts | 315° |
| 2026-05-07 06:15 | 25.13516 | 39.23404 | 33969 ft | 483 kts | 315° |
| 2026-05-07 06:16 | 25.18916 | 39.19007 | 33989 ft | 479 kts | 312° |
| 2026-05-07 06:16 | 25.23534 | 39.13882 | 33983 ft | 465 kts | 301° |
| 2026-05-07 06:17 | 25.27169 | 39.08091 | 33974 ft | 457 kts | 295° |
| 2026-05-07 06:17 | 25.30583 | 39.02171 | 33963 ft | 457 kts | 294° |
| 2026-05-07 06:18 | 25.34009 | 38.96260 | 33968 ft | 456 kts | 294° |
| 2026-05-07 06:18 | 25.37447 | 38.90360 | 33962 ft | 456 kts | 295° |
| 2026-05-07 06:19 | 25.40888 | 38.84462 | 33968 ft | 457 kts | 295° |
| 2026-05-07 06:19 | 25.44335 | 38.78549 | 33962 ft | 457 kts | 295° |
| 2026-05-07 06:20 | 25.47776 | 38.72639 | 33959 ft | 457 kts | 295° |
| 2026-05-07 06:20 | 25.51193 | 38.66761 | 33957 ft | 457 kts | 295° |
| 2026-05-07 06:21 | 25.54650 | 38.60806 | 33956 ft | 456 kts | 294° |
| 2026-05-07 06:21 | 25.58055 | 38.54937 | 33944 ft | 455 kts | 294° |
| 2026-05-07 06:22 | 25.61490 | 38.49005 | 33944 ft | 454 kts | 294° |
| 2026-05-07 06:22 | 25.66569 | 38.40222 | 33943 ft | 453 kts | 294° |
| 2026-05-07 06:23 | 25.69962 | 38.34343 | 33950 ft | 453 kts | 294° |
| 2026-05-07 06:23 | 25.73355 | 38.28456 | 33937 ft | 452 kts | 294° |
| 2026-05-07 06:24 | 25.76740 | 38.22576 | 33934 ft | 452 kts | 294° |
| 2026-05-07 06:24 | 25.80120 | 38.16691 | 33947 ft | 453 kts | 294° |
| 2026-05-07 06:25 | 25.83522 | 38.10776 | 33912 ft | 455 kts | 294° |
| 2026-05-07 06:25 | 25.86917 | 38.04861 | 33934 ft | 453 kts | 294° |
| 2026-05-07 06:26 | 25.90299 | 37.98957 | 33915 ft | 452 kts | 294° |
| 2026-05-07 06:26 | 25.93671 | 37.93063 | 33947 ft | 452 kts | 294° |
| 2026-05-07 06:27 | 25.97039 | 37.87169 | 33958 ft | 452 kts | 294° |
| 2026-05-07 06:27 | 25.99856 | 37.81037 | 33960 ft | 439 kts | 282° |
| 2026-05-07 06:28 | 26.01467 | 37.74564 | 33959 ft | 430 kts | 272° |
| 2026-05-07 06:28 | 26.02327 | 37.67990 | 33969 ft | 431 kts | 271° |
| 2026-05-07 06:29 | 26.03194 | 37.61392 | 33953 ft | 431 kts | 272° |
| 2026-05-07 06:29 | 26.04084 | 37.54841 | 33952 ft | 431 kts | 272° |
| 2026-05-07 06:30 | 26.04982 | 37.48215 | 33948 ft | 431 kts | 271° |
| 2026-05-07 06:30 | 26.05855 | 37.41662 | 33947 ft | 432 kts | 272° |
| 2026-05-07 06:31 | 26.06732 | 37.35062 | 33957 ft | 431 kts | 272° |
| 2026-05-07 06:31 | 26.07603 | 37.28472 | 33942 ft | 430 kts | 272° |
| 2026-05-07 06:32 | 26.08468 | 37.21900 | 33959 ft | 430 kts | 271° |
| 2026-05-07 06:32 | 26.09332 | 37.15328 | 33940 ft | 430 kts | 271° |
| 2026-05-07 06:33 | 26.10193 | 37.08762 | 33934 ft | 428 kts | 271° |
| 2026-05-07 06:33 | 26.11047 | 37.02202 | 33934 ft | 428 kts | 271° |
| 2026-05-07 06:34 | 26.11901 | 36.95641 | 33934 ft | 429 kts | 271° |
| 2026-05-07 06:34 | 26.12751 | 36.89072 | 33897 ft | 429 kts | 271° |
| 2026-05-07 06:35 | 26.13600 | 36.82502 | 33913 ft | 428 kts | 271° |
| 2026-05-07 06:35 | 26.14443 | 36.75952 | 33918 ft | 428 kts | 271° |
| 2026-05-07 06:36 | 26.15282 | 36.69391 | 33922 ft | 428 kts | 271° |
| 2026-05-07 06:36 | 26.16119 | 36.62832 | 33906 ft | 428 kts | 271° |
| 2026-05-07 06:37 | 26.16955 | 36.56265 | 33904 ft | 428 kts | 271° |
| 2026-05-07 06:37 | 26.18546 | 36.49833 | 33961 ft | 443 kts | 288° |
| 2026-05-07 06:38 | 26.21912 | 36.43956 | 33938 ft | 463 kts | 303° |
| 2026-05-07 06:38 | 26.26435 | 36.38779 | 33936 ft | 467 kts | 306° |
| 2026-05-07 06:39 | 26.31012 | 36.33655 | 33930 ft | 467 kts | 306° |
| 2026-05-07 06:39 | 26.35550 | 36.28484 | 33926 ft | 466 kts | 305° |
| 2026-05-07 06:40 | 26.40060 | 36.23282 | 33936 ft | 466 kts | 306° |
| 2026-05-07 06:40 | 26.44564 | 36.18070 | 33915 ft | 466 kts | 306° |
| 2026-05-07 06:41 | 26.49064 | 36.12860 | 33911 ft | 466 kts | 306° |
| 2026-05-07 06:41 | 26.52803 | 36.08529 | 33912 ft | 466 kts | 306° |
| 2026-05-07 06:42 | 26.57299 | 36.03315 | 33914 ft | 465 kts | 306° |
| 2026-05-07 06:42 | 26.61785 | 35.98105 | 33919 ft | 465 kts | 306° |
| 2026-05-07 06:43 | 26.66267 | 35.92893 | 33949 ft | 465 kts | 306° |
| 2026-05-07 06:43 | 26.70755 | 35.87668 | 33924 ft | 466 kts | 306° |
| 2026-05-07 06:44 | 26.75240 | 35.82439 | 33922 ft | 466 kts | 306° |
| 2026-05-07 06:44 | 26.79733 | 35.77197 | 33924 ft | 467 kts | 306° |
| 2026-05-07 06:45 | 26.84225 | 35.71951 | 33938 ft | 467 kts | 306° |
| 2026-05-07 06:45 | 26.88721 | 35.66692 | 33932 ft | 467 kts | 306° |
| 2026-05-07 06:46 | 26.93215 | 35.61430 | 33931 ft | 467 kts | 306° |
| 2026-05-07 06:46 | 26.97706 | 35.56164 | 33931 ft | 467 kts | 306° |
| 2026-05-07 06:47 | 27.02191 | 35.50899 | 33935 ft | 467 kts | 306° |
| 2026-05-07 06:47 | 27.06652 | 35.45652 | 33945 ft | 468 kts | 306° |
| 2026-05-07 06:48 | 27.11145 | 35.40364 | 33942 ft | 468 kts | 306° |
| 2026-05-07 06:48 | 27.15645 | 35.35061 | 33943 ft | 469 kts | 306° |
| 2026-05-07 06:49 | 27.20147 | 35.29749 | 33946 ft | 469 kts | 306° |
| 2026-05-07 06:49 | 27.24641 | 35.24439 | 33959 ft | 469 kts | 306° |
| 2026-05-07 06:50 | 27.29148 | 35.19109 | 33953 ft | 469 kts | 306° |
| 2026-05-07 06:50 | 27.33642 | 35.13785 | 33952 ft | 469 kts | 306° |
| 2026-05-07 06:51 | 27.38133 | 35.08459 | 33956 ft | 469 kts | 306° |
| 2026-05-07 06:51 | 27.42615 | 35.03136 | 33966 ft | 469 kts | 306° |
| 2026-05-07 06:52 | 27.47102 | 34.97800 | 33974 ft | 469 kts | 306° |
| 2026-05-07 06:52 | 27.51600 | 34.92470 | 33959 ft | 471 kts | 308° |
| 2026-05-07 06:53 | 27.56359 | 34.87367 | 33953 ft | 473 kts | 309° |
| 2026-05-07 06:53 | 27.61181 | 34.82332 | 33956 ft | 473 kts | 309° |
| 2026-05-07 06:54 | 27.65988 | 34.77277 | 33959 ft | 472 kts | 309° |
| 2026-05-07 06:54 | 27.70778 | 34.72205 | 33979 ft | 472 kts | 309° |
| 2026-05-07 06:55 | 27.75562 | 34.67123 | 33960 ft | 472 kts | 309° |
| 2026-05-07 06:55 | 27.80310 | 34.62076 | 33982 ft | 472 kts | 309° |
| 2026-05-07 06:56 | 27.85083 | 34.56998 | 33983 ft | 471 kts | 309° |
| 2026-05-07 06:56 | 27.89843 | 34.51925 | 33987 ft | 470 kts | 309° |
| 2026-05-07 06:57 | 27.94603 | 34.46848 | 34006 ft | 469 kts | 310° |
| 2026-05-07 06:57 | 27.99339 | 34.41772 | 33997 ft | 467 kts | 308° |
| 2026-05-07 06:58 | 28.03546 | 34.36268 | 34000 ft | 461 kts | 303° |
| 2026-05-07 06:58 | 28.07577 | 34.30613 | 33993 ft | 461 kts | 302° |
| 2026-05-07 06:59 | 28.11616 | 34.24974 | 33989 ft | 461 kts | 303° |
| 2026-05-07 06:59 | 28.15673 | 34.19340 | 34012 ft | 461 kts | 304° |
| 2026-05-07 07:00 | 28.19725 | 34.13717 | 33991 ft | 460 kts | 304° |
| 2026-05-07 07:00 | 28.23772 | 34.08099 | 34003 ft | 460 kts | 304° |
| 2026-05-07 07:01 | 28.27814 | 34.02472 | 33990 ft | 460 kts | 304° |
| 2026-05-07 07:01 | 28.31853 | 33.96844 | 34025 ft | 460 kts | 304° |
| 2026-05-07 07:02 | 28.35888 | 33.91206 | 34007 ft | 461 kts | 306° |
| 2026-05-07 07:02 | 28.39940 | 33.85548 | 34005 ft | 462 kts | 306° |
| 2026-05-07 07:03 | 28.43994 | 33.79878 | 34007 ft | 462 kts | 306° |
| 2026-05-07 07:03 | 28.48044 | 33.74203 | 33990 ft | 462 kts | 306° |
| 2026-05-07 07:04 | 28.52081 | 33.68536 | 33999 ft | 461 kts | 306° |
| 2026-05-07 07:04 | 28.56124 | 33.62850 | 34013 ft | 463 kts | 307° |
| 2026-05-07 07:05 | 28.60174 | 33.57148 | 34014 ft | 463 kts | 307° |
| 2026-05-07 07:05 | 28.64228 | 33.51431 | 34001 ft | 464 kts | 307° |
| 2026-05-07 07:06 | 28.68284 | 33.45717 | 34004 ft | 464 kts | 307° |
| 2026-05-07 07:06 | 28.72309 | 33.40041 | 34011 ft | 463 kts | 307° |
| 2026-05-07 07:07 | 28.76378 | 33.34293 | 34025 ft | 463 kts | 307° |
| 2026-05-07 07:07 | 28.80415 | 33.28578 | 34024 ft | 462 kts | 307° |
| 2026-05-07 07:08 | 28.84446 | 33.22865 | 34026 ft | 462 kts | 307° |
| 2026-05-07 07:08 | 28.88447 | 33.17187 | 34036 ft | 462 kts | 307° |
| 2026-05-07 07:09 | 28.92475 | 33.11464 | 34045 ft | 461 kts | 307° |
| 2026-05-07 07:09 | 28.96486 | 33.05756 | 34039 ft | 461 kts | 307° |
| 2026-05-07 07:10 | 29.00497 | 33.00042 | 34047 ft | 461 kts | 307° |
| 2026-05-07 07:10 | 29.04504 | 32.94323 | 34058 ft | 461 kts | 307° |
| 2026-05-07 07:11 | 29.08506 | 32.88608 | 34061 ft | 460 kts | 307° |
| 2026-05-07 07:11 | 29.12477 | 32.82921 | 34058 ft | 457 kts | 308° |
| 2026-05-07 07:12 | 29.16436 | 32.77253 | 34064 ft | 455 kts | 307° |
| 2026-05-07 07:12 | 29.20368 | 32.71608 | 34073 ft | 453 kts | 307° |
| 2026-05-07 07:13 | 29.24308 | 32.65945 | 34076 ft | 458 kts | 308° |
| 2026-05-07 07:13 | 29.28283 | 32.60228 | 34080 ft | 461 kts | 308° |
| 2026-05-07 07:14 | 29.32268 | 32.54446 | 34085 ft | 463 kts | 307° |
| 2026-05-07 07:14 | 29.36213 | 32.48686 | 34082 ft | 453 kts | 307° |
| 2026-05-07 07:15 | 29.40094 | 32.43012 | 34091 ft | 455 kts | 307° |
| 2026-05-07 07:15 | 29.43993 | 32.37311 | 34095 ft | 458 kts | 307° |
| 2026-05-07 07:16 | 29.47931 | 32.31545 | 34089 ft | 460 kts | 307° |
| 2026-05-07 07:16 | 29.51882 | 32.25751 | 34095 ft | 462 kts | 307° |
| 2026-05-07 07:17 | 29.55845 | 32.19932 | 34104 ft | 462 kts | 307° |
| 2026-05-07 07:17 | 29.59806 | 32.14110 | 34103 ft | 462 kts | 307° |
| 2026-05-07 07:18 | 29.63749 | 32.08303 | 34100 ft | 460 kts | 307° |
| 2026-05-07 07:18 | 29.67677 | 32.02511 | 34108 ft | 458 kts | 307° |
| 2026-05-07 07:19 | 29.71584 | 31.96740 | 34106 ft | 457 kts | 307° |
| 2026-05-07 07:19 | 29.75488 | 31.90967 | 34115 ft | 457 kts | 307° |
| 2026-05-07 07:20 | 29.79380 | 31.85181 | 34120 ft | 458 kts | 306° |
| 2026-05-07 07:20 | 29.83177 | 31.79285 | 34124 ft | 459 kts | 305° |
| 2026-05-07 07:21 | 29.86962 | 31.73363 | 34122 ft | 458 kts | 306° |
| 2026-05-07 07:21 | 29.90751 | 31.67468 | 34120 ft | 458 kts | 306° |
| 2026-05-07 07:22 | 29.94548 | 31.61575 | 34120 ft | 457 kts | 306° |
| 2026-05-07 07:22 | 29.98341 | 31.55697 | 34127 ft | 456 kts | 306° |
| 2026-05-07 07:23 | 30.02124 | 31.49820 | 34125 ft | 456 kts | 306° |
| 2026-05-07 07:23 | 30.05904 | 31.43940 | 34131 ft | 456 kts | 306° |
| 2026-05-07 07:24 | 30.09781 | 31.38211 | 34129 ft | 457 kts | 311° |
| 2026-05-07 07:24 | 30.14385 | 31.33135 | 34133 ft | 459 kts | 316° |
| 2026-05-07 07:25 | 30.21453 | 31.25651 | 34122 ft | 460 kts | 316° |
| 2026-05-07 07:26 | 30.26153 | 31.20622 | 34112 ft | 461 kts | 316° |
| 2026-05-07 07:26 | 30.30848 | 31.15571 | 34107 ft | 461 kts | 316° |
| 2026-05-07 07:27 | 30.35547 | 31.10504 | 34118 ft | 461 kts | 316° |
| 2026-05-07 07:27 | 30.40239 | 31.05440 | 34114 ft | 461 kts | 316° |
| 2026-05-07 07:28 | 30.44136 | 31.01230 | 34112 ft | 461 kts | 316° |
| 2026-05-07 07:28 | 30.48823 | 30.96160 | 34110 ft | 461 kts | 316° |
| 2026-05-07 07:29 | 30.53507 | 30.91086 | 34118 ft | 460 kts | 316° |
| 2026-05-07 07:29 | 30.58185 | 30.86010 | 34119 ft | 460 kts | 316° |
| 2026-05-07 07:30 | 30.62847 | 30.80947 | 34121 ft | 459 kts | 316° |
| 2026-05-07 07:30 | 30.67513 | 30.75871 | 34118 ft | 459 kts | 316° |
| 2026-05-07 07:31 | 30.72165 | 30.70803 | 34121 ft | 459 kts | 316° |
| 2026-05-07 07:31 | 30.76823 | 30.65723 | 34118 ft | 459 kts | 316° |
| 2026-05-07 07:32 | 30.81475 | 30.60640 | 34118 ft | 459 kts | 316° |
| 2026-05-07 07:32 | 30.86072 | 30.55611 | 34133 ft | 459 kts | 315° |
| 2026-05-07 07:33 | 30.90674 | 30.50570 | 34123 ft | 459 kts | 315° |
| 2026-05-07 07:33 | 30.95315 | 30.45478 | 34125 ft | 458 kts | 315° |
| 2026-05-07 07:34 | 30.99953 | 30.40380 | 34123 ft | 458 kts | 315° |
| 2026-05-07 07:34 | 31.04580 | 30.35290 | 34127 ft | 457 kts | 315° |
| 2026-05-07 07:35 | 31.08652 | 30.29702 | 34124 ft | 455 kts | 301° |
| 2026-05-07 07:35 | 31.11291 | 30.23030 | 34127 ft | 453 kts | 287° |
| 2026-05-07 07:36 | 31.13139 | 30.15997 | 34134 ft | 453 kts | 287° |
| 2026-05-07 07:36 | 31.15018 | 30.08966 | 34131 ft | 454 kts | 288° |
| 2026-05-07 07:37 | 31.16937 | 30.01943 | 34123 ft | 454 kts | 288° |
| 2026-05-07 07:37 | 31.19267 | 29.95117 | 34130 ft | 453 kts | 297° |
| 2026-05-07 07:38 | 31.22586 | 29.88882 | 34131 ft | 452 kts | 306° |
| 2026-05-07 07:38 | 31.26325 | 29.82966 | 34133 ft | 453 kts | 306° |
| 2026-05-07 07:39 | 31.30052 | 29.77066 | 34141 ft | 450 kts | 306° |
| 2026-05-07 07:39 | 31.33747 | 29.71156 | 34135 ft | 448 kts | 306° |
| 2026-05-07 07:40 | 31.37411 | 29.65262 | 34134 ft | 447 kts | 306° |
| 2026-05-07 07:40 | 31.41070 | 29.59367 | 34146 ft | 447 kts | 306° |
| 2026-05-07 07:41 | 31.44724 | 29.53472 | 34140 ft | 448 kts | 306° |
| 2026-05-07 07:41 | 31.48380 | 29.47563 | 34146 ft | 448 kts | 306° |
| 2026-05-07 07:42 | 31.52039 | 29.41644 | 34145 ft | 448 kts | 306° |
| 2026-05-07 07:42 | 31.55694 | 29.35719 | 34153 ft | 448 kts | 306° |
| 2026-05-07 07:43 | 31.59345 | 29.29792 | 34152 ft | 448 kts | 306° |
| 2026-05-07 07:43 | 31.62977 | 29.23843 | 34147 ft | 448 kts | 306° |
| 2026-05-07 07:44 | 31.66594 | 29.17900 | 34156 ft | 447 kts | 306° |
| 2026-05-07 07:44 | 31.70201 | 29.11975 | 34167 ft | 446 kts | 306° |
| 2026-05-07 07:45 | 31.74140 | 29.06378 | 34160 ft | 445 kts | 314° |
| 2026-05-07 07:45 | 31.78805 | 29.01616 | 34167 ft | 444 kts | 320° |
| 2026-05-07 07:46 | 31.83612 | 28.97045 | 34170 ft | 444 kts | 320° |
| 2026-05-07 07:46 | 31.88408 | 28.92457 | 34165 ft | 443 kts | 320° |
| 2026-05-07 07:47 | 31.93181 | 28.87861 | 34166 ft | 442 kts | 320° |
| 2026-05-07 07:47 | 31.97931 | 28.83270 | 34167 ft | 441 kts | 320° |
| 2026-05-07 07:48 | 32.02670 | 28.78680 | 34179 ft | 441 kts | 320° |
| 2026-05-07 07:48 | 32.07404 | 28.74090 | 34170 ft | 441 kts | 320° |
| 2026-05-07 07:49 | 32.12108 | 28.69524 | 34172 ft | 440 kts | 320° |
| 2026-05-07 07:49 | 32.16836 | 28.64927 | 34160 ft | 440 kts | 320° |
| 2026-05-07 07:50 | 32.21546 | 28.60342 | 34164 ft | 438 kts | 320° |
| 2026-05-07 07:50 | 32.26233 | 28.55773 | 34165 ft | 436 kts | 320° |
| 2026-05-07 07:51 | 32.30906 | 28.51212 | 34167 ft | 435 kts | 320° |
| 2026-05-07 07:51 | 32.35570 | 28.46653 | 34178 ft | 435 kts | 320° |
| 2026-05-07 07:52 | 32.40233 | 28.42088 | 34165 ft | 435 kts | 320° |
| 2026-05-07 07:52 | 32.44894 | 28.37519 | 34170 ft | 435 kts | 320° |
| 2026-05-07 07:53 | 32.49547 | 28.32951 | 34165 ft | 433 kts | 321° |
| 2026-05-07 07:53 | 32.54164 | 28.28413 | 34165 ft | 430 kts | 321° |
| 2026-05-07 07:54 | 32.58756 | 28.23893 | 34162 ft | 427 kts | 321° |
| 2026-05-07 07:54 | 32.63317 | 28.19397 | 34160 ft | 426 kts | 321° |
| 2026-05-07 07:55 | 32.67874 | 28.14899 | 34172 ft | 426 kts | 321° |
| 2026-05-07 07:55 | 32.72428 | 28.10399 | 34166 ft | 426 kts | 321° |
| 2026-05-07 07:56 | 32.76985 | 28.05887 | 34173 ft | 426 kts | 322° |
| 2026-05-07 07:56 | 32.81515 | 28.01397 | 34157 ft | 422 kts | 322° |
| 2026-05-07 07:57 | 32.86004 | 27.96941 | 34165 ft | 419 kts | 322° |
| 2026-05-07 07:57 | 32.90457 | 27.92517 | 34166 ft | 416 kts | 322° |
| 2026-05-07 07:58 | 32.94899 | 27.88096 | 34176 ft | 415 kts | 321° |
| 2026-05-07 07:58 | 32.99344 | 27.83668 | 34172 ft | 418 kts | 321° |
| 2026-05-07 07:59 | 33.03813 | 27.79208 | 34178 ft | 421 kts | 321° |
| 2026-05-07 07:59 | 33.08311 | 27.74714 | 34172 ft | 423 kts | 321° |
| 2026-05-07 08:00 | 33.12826 | 27.70196 | 34176 ft | 424 kts | 321° |
| 2026-05-07 08:00 | 33.17347 | 27.65666 | 34173 ft | 424 kts | 321° |
| 2026-05-07 08:01 | 33.21864 | 27.61133 | 34163 ft | 424 kts | 321° |
| 2026-05-07 08:01 | 33.26373 | 27.56602 | 34168 ft | 423 kts | 321° |
| 2026-05-07 08:02 | 33.30871 | 27.52076 | 34169 ft | 423 kts | 321° |
| 2026-05-07 08:02 | 33.35367 | 27.47546 | 34165 ft | 422 kts | 321° |
| 2026-05-07 08:03 | 33.39847 | 27.43025 | 34173 ft | 420 kts | 321° |
| 2026-05-07 08:03 | 33.44297 | 27.38528 | 34169 ft | 418 kts | 321° |
| 2026-05-07 08:04 | 33.48740 | 27.34032 | 34174 ft | 417 kts | 321° |
| 2026-05-07 08:04 | 33.53164 | 27.29549 | 34172 ft | 416 kts | 321° |
| 2026-05-07 08:05 | 33.57577 | 27.25071 | 34166 ft | 416 kts | 321° |
| 2026-05-07 08:05 | 33.62007 | 27.20572 | 34168 ft | 418 kts | 321° |
| 2026-05-07 08:06 | 33.66457 | 27.16044 | 34161 ft | 420 kts | 321° |
| 2026-05-07 08:06 | 33.70901 | 27.11514 | 34157 ft | 418 kts | 321° |
| 2026-05-07 08:07 | 33.75310 | 27.07015 | 34157 ft | 415 kts | 321° |
| 2026-05-07 08:07 | 33.79698 | 27.02531 | 34164 ft | 413 kts | 321° |
| 2026-05-07 08:08 | 33.84063 | 26.98065 | 34165 ft | 411 kts | 321° |
| 2026-05-07 08:08 | 33.88386 | 26.93635 | 34162 ft | 411 kts | 321° |
| 2026-05-07 08:09 | 33.92749 | 26.89158 | 34170 ft | 413 kts | 320° |
| 2026-05-07 08:09 | 33.97136 | 26.84649 | 34165 ft | 415 kts | 321° |
| 2026-05-07 08:10 | 34.00811 | 26.80879 | 34164 ft | 414 kts | 321° |
| 2026-05-07 08:10 | 34.05309 | 26.76646 | 34165 ft | 412 kts | 323° |
| 2026-05-07 08:11 | 34.09871 | 26.72493 | 34159 ft | 410 kts | 323° |
| 2026-05-07 08:11 | 34.14409 | 26.68324 | 34160 ft | 409 kts | 323° |
| 2026-05-07 08:12 | 34.18918 | 26.64142 | 34174 ft | 409 kts | 323° |
| 2026-05-07 08:12 | 34.23428 | 26.59943 | 34161 ft | 411 kts | 322° |
| 2026-05-07 08:13 | 34.27961 | 26.55712 | 34163 ft | 412 kts | 322° |
| 2026-05-07 08:13 | 34.32487 | 26.51481 | 34152 ft | 410 kts | 322° |
| 2026-05-07 08:14 | 34.36989 | 26.47268 | 34155 ft | 408 kts | 322° |
| 2026-05-07 08:14 | 34.41463 | 26.43076 | 34161 ft | 406 kts | 322° |
| 2026-05-07 08:15 | 34.45921 | 26.38893 | 34165 ft | 405 kts | 322° |
| 2026-05-07 08:15 | 34.50368 | 26.34715 | 34170 ft | 405 kts | 322° |
| 2026-05-07 08:16 | 34.54835 | 26.30512 | 34176 ft | 407 kts | 322° |
| 2026-05-07 08:16 | 34.59325 | 26.26281 | 34169 ft | 410 kts | 322° |
| 2026-05-07 08:17 | 34.63832 | 26.22028 | 34168 ft | 411 kts | 321° |
| 2026-05-07 08:17 | 34.68346 | 26.17762 | 34166 ft | 411 kts | 321° |
| 2026-05-07 08:18 | 34.72828 | 26.13521 | 34168 ft | 411 kts | 321° |
| 2026-05-07 08:18 | 34.77330 | 26.09255 | 34169 ft | 410 kts | 321° |
| 2026-05-07 08:19 | 34.81826 | 26.04989 | 34165 ft | 410 kts | 321° |
| 2026-05-07 08:19 | 34.86322 | 26.00715 | 34170 ft | 410 kts | 321° |
| 2026-05-07 08:20 | 34.90818 | 25.96436 | 34172 ft | 410 kts | 321° |
| 2026-05-07 08:20 | 34.95317 | 25.92148 | 34163 ft | 410 kts | 321° |
| 2026-05-07 08:21 | 34.99812 | 25.87858 | 34167 ft | 410 kts | 321° |
| 2026-05-07 08:21 | 35.04310 | 25.83558 | 34159 ft | 411 kts | 321° |
| 2026-05-07 08:22 | 35.08806 | 25.79256 | 34178 ft | 411 kts | 321° |
| 2026-05-07 08:22 | 35.13317 | 25.74921 | 34174 ft | 414 kts | 320° |
| 2026-05-07 08:23 | 35.17848 | 25.70549 | 34168 ft | 415 kts | 320° |
| 2026-05-07 08:23 | 35.22382 | 25.66173 | 34167 ft | 416 kts | 320° |
| 2026-05-07 08:24 | 35.26934 | 25.61793 | 34149 ft | 415 kts | 320° |
| 2026-05-07 08:24 | 35.31471 | 25.57423 | 34162 ft | 415 kts | 320° |
| 2026-05-07 08:25 | 35.35992 | 25.53056 | 34160 ft | 414 kts | 320° |
| 2026-05-07 08:25 | 35.40517 | 25.48680 | 34161 ft | 414 kts | 320° |
| 2026-05-07 08:26 | 35.47296 | 25.42110 | 34161 ft | 414 kts | 320° |
| 2026-05-07 08:26 | 35.51818 | 25.37720 | 34158 ft | 415 kts | 320° |
| 2026-05-07 08:27 | 35.56313 | 25.33350 | 34160 ft | 415 kts | 320° |
| 2026-05-07 08:27 | 35.60865 | 25.28921 | 34157 ft | 415 kts | 319° |
| 2026-05-07 08:28 | 35.65355 | 25.24541 | 34157 ft | 415 kts | 319° |
| 2026-05-07 08:28 | 35.69872 | 25.20129 | 34158 ft | 414 kts | 319° |
| 2026-05-07 08:29 | 35.74384 | 25.15717 | 34158 ft | 414 kts | 319° |
| 2026-05-07 08:29 | 35.78891 | 25.11301 | 34159 ft | 414 kts | 319° |
| 2026-05-07 08:30 | 35.83393 | 25.06885 | 34157 ft | 414 kts | 319° |
| 2026-05-07 08:30 | 35.87893 | 25.02464 | 34159 ft | 414 kts | 319° |
| 2026-05-07 08:31 | 35.92394 | 24.98035 | 34151 ft | 414 kts | 319° |
| 2026-05-07 08:31 | 35.96897 | 24.93597 | 34161 ft | 416 kts | 319° |
| 2026-05-07 08:32 | 36.01431 | 24.89123 | 34162 ft | 418 kts | 319° |
| 2026-05-07 08:32 | 36.05993 | 24.84614 | 34161 ft | 421 kts | 319° |
| 2026-05-07 08:33 | 36.10574 | 24.80083 | 34159 ft | 422 kts | 319° |
| 2026-05-07 08:33 | 36.15162 | 24.75540 | 34158 ft | 422 kts | 319° |
| 2026-05-07 08:34 | 36.19744 | 24.70994 | 34154 ft | 422 kts | 319° |
| 2026-05-07 08:34 | 36.24315 | 24.66452 | 34155 ft | 421 kts | 319° |
| 2026-05-07 08:35 | 36.28884 | 24.61905 | 34158 ft | 421 kts | 318° |
| 2026-05-07 08:35 | 36.33425 | 24.57378 | 34155 ft | 421 kts | 318° |
| 2026-05-07 08:36 | 36.37990 | 24.52819 | 34159 ft | 422 kts | 318° |
| 2026-05-07 08:36 | 36.42561 | 24.48248 | 34155 ft | 422 kts | 318° |
| 2026-05-07 08:37 | 36.47131 | 24.43671 | 34154 ft | 422 kts | 318° |
| 2026-05-07 08:37 | 36.51701 | 24.39084 | 34155 ft | 422 kts | 318° |
| 2026-05-07 08:38 | 36.56266 | 24.34491 | 34153 ft | 423 kts | 318° |
| 2026-05-07 08:38 | 36.60846 | 24.29875 | 34153 ft | 424 kts | 318° |
| 2026-05-07 08:39 | 36.65435 | 24.25243 | 34153 ft | 425 kts | 318° |
| 2026-05-07 08:39 | 36.70026 | 24.20602 | 34157 ft | 425 kts | 318° |
| 2026-05-07 08:40 | 36.74620 | 24.15950 | 34152 ft | 425 kts | 318° |
| 2026-05-07 08:40 | 36.79211 | 24.11295 | 34147 ft | 425 kts | 318° |
| 2026-05-07 08:41 | 36.83808 | 24.06626 | 34157 ft | 426 kts | 317° |
| 2026-05-07 08:41 | 36.88405 | 24.01948 | 34150 ft | 427 kts | 317° |
| 2026-05-07 08:42 | 36.93009 | 23.97259 | 34146 ft | 427 kts | 317° |
| 2026-05-07 08:42 | 36.97618 | 23.92563 | 34144 ft | 427 kts | 317° |
| 2026-05-07 08:43 | 37.02222 | 23.87865 | 34147 ft | 427 kts | 317° |
| 2026-05-07 08:43 | 37.06823 | 23.83161 | 34139 ft | 427 kts | 317° |
| 2026-05-07 08:44 | 37.11422 | 23.78451 | 34154 ft | 427 kts | 317° |
| 2026-05-07 08:44 | 37.16036 | 23.73718 | 34144 ft | 429 kts | 317° |
| 2026-05-07 08:45 | 37.20659 | 23.68968 | 34135 ft | 430 kts | 317° |
| 2026-05-07 08:45 | 37.25255 | 23.64238 | 34141 ft | 430 kts | 317° |
| 2026-05-07 08:46 | 37.29880 | 23.59471 | 34135 ft | 430 kts | 317° |
| 2026-05-07 08:46 | 37.34532 | 23.54667 | 34127 ft | 430 kts | 317° |
| 2026-05-07 08:47 | 37.39147 | 23.49894 | 34152 ft | 430 kts | 317° |
| 2026-05-07 08:47 | 37.43774 | 23.45100 | 34144 ft | 432 kts | 317° |
| 2026-05-07 08:48 | 37.48390 | 23.40310 | 34148 ft | 434 kts | 317° |
| 2026-05-07 08:48 | 37.53051 | 23.35465 | 34147 ft | 434 kts | 317° |
| 2026-05-07 08:49 | 37.57712 | 23.30612 | 34141 ft | 434 kts | 317° |
| 2026-05-07 08:49 | 37.62365 | 23.25760 | 34136 ft | 434 kts | 317° |
| 2026-05-07 08:50 | 37.67008 | 23.20910 | 34135 ft | 433 kts | 317° |
| 2026-05-07 08:50 | 37.71687 | 23.16013 | 34128 ft | 435 kts | 316° |
| 2026-05-07 08:51 | 37.76353 | 23.11120 | 34134 ft | 437 kts | 317° |
| 2026-05-07 08:51 | 37.81000 | 23.06243 | 34125 ft | 437 kts | 316° |
| 2026-05-07 08:52 | 37.85683 | 23.01317 | 34119 ft | 438 kts | 316° |
| 2026-05-07 08:52 | 37.90360 | 22.96388 | 34123 ft | 437 kts | 316° |
| 2026-05-07 08:53 | 37.95035 | 22.91461 | 34143 ft | 437 kts | 316° |
| 2026-05-07 08:53 | 37.98935 | 22.87365 | 34127 ft | 438 kts | 316° |
| 2026-05-07 08:54 | 38.03634 | 22.82429 | 34121 ft | 439 kts | 316° |
| 2026-05-07 08:54 | 38.08341 | 22.77472 | 34121 ft | 440 kts | 316° |
| 2026-05-07 08:55 | 38.13051 | 22.72501 | 34119 ft | 440 kts | 316° |
| 2026-05-07 08:55 | 38.17761 | 22.67521 | 34123 ft | 440 kts | 316° |
| 2026-05-07 08:56 | 38.22467 | 22.62538 | 34122 ft | 440 kts | 316° |
| 2026-05-07 08:56 | 38.27168 | 22.57549 | 34129 ft | 441 kts | 316° |
| 2026-05-07 08:57 | 38.31884 | 22.52534 | 34128 ft | 442 kts | 316° |
| 2026-05-07 08:57 | 38.36590 | 22.47523 | 34122 ft | 442 kts | 316° |
| 2026-05-07 08:58 | 38.41311 | 22.42489 | 34134 ft | 441 kts | 316° |
| 2026-05-07 08:58 | 38.46001 | 22.37479 | 34116 ft | 438 kts | 316° |
| 2026-05-07 08:59 | 38.50525 | 22.32638 | 34099 ft | 436 kts | 316° |
| 2026-05-07 08:59 | 38.55177 | 22.27647 | 34116 ft | 436 kts | 316° |
| 2026-05-07 09:00 | 38.59824 | 22.22653 | 34138 ft | 437 kts | 316° |
| 2026-05-07 09:00 | 38.64484 | 22.17640 | 34112 ft | 438 kts | 316° |
| 2026-05-07 09:01 | 38.69108 | 22.12661 | 34155 ft | 437 kts | 316° |
| 2026-05-07 09:01 | 38.73769 | 22.07626 | 34126 ft | 439 kts | 316° |
| 2026-05-07 09:02 | 38.78447 | 22.02561 | 34139 ft | 442 kts | 316° |
| 2026-05-07 09:02 | 38.83155 | 21.97454 | 34132 ft | 445 kts | 316° |
| 2026-05-07 09:03 | 38.87902 | 21.92306 | 34137 ft | 447 kts | 316° |
| 2026-05-07 09:03 | 38.92656 | 21.87137 | 34135 ft | 447 kts | 316° |
| 2026-05-07 09:04 | 38.97398 | 21.81973 | 34137 ft | 446 kts | 316° |
| 2026-05-07 09:04 | 39.02126 | 21.76811 | 34145 ft | 445 kts | 316° |
| 2026-05-07 09:05 | 39.06842 | 21.71653 | 34136 ft | 445 kts | 316° |
| 2026-05-07 09:05 | 39.11560 | 21.66486 | 34142 ft | 446 kts | 316° |
| 2026-05-07 09:06 | 39.16282 | 21.61301 | 34136 ft | 447 kts | 316° |
| 2026-05-07 09:06 | 39.20984 | 21.56132 | 34131 ft | 448 kts | 316° |
| 2026-05-07 09:07 | 39.25731 | 21.50903 | 34149 ft | 448 kts | 316° |
| 2026-05-07 09:07 | 39.30474 | 21.45670 | 34140 ft | 448 kts | 316° |
| 2026-05-07 09:08 | 39.35219 | 21.40422 | 34149 ft | 451 kts | 316° |
| 2026-05-07 09:08 | 39.40009 | 21.35113 | 34145 ft | 456 kts | 316° |
| 2026-05-07 09:09 | 39.44833 | 21.29760 | 34149 ft | 458 kts | 316° |
| 2026-05-07 09:09 | 39.49676 | 21.24377 | 34157 ft | 460 kts | 316° |
| 2026-05-07 09:10 | 39.54527 | 21.18973 | 34164 ft | 459 kts | 316° |
| 2026-05-07 09:10 | 39.59374 | 21.13564 | 34164 ft | 459 kts | 316° |
| 2026-05-07 09:11 | 39.64201 | 21.08165 | 34169 ft | 457 kts | 316° |
| 2026-05-07 09:11 | 39.69030 | 21.02756 | 34158 ft | 460 kts | 316° |
| 2026-05-07 09:12 | 39.73873 | 20.97319 | 34149 ft | 460 kts | 316° |
| 2026-05-07 09:12 | 39.78709 | 20.91880 | 34160 ft | 459 kts | 316° |
| 2026-05-07 09:13 | 39.83541 | 20.86434 | 34156 ft | 459 kts | 316° |
| 2026-05-07 09:13 | 39.88368 | 20.80983 | 34153 ft | 460 kts | 316° |
| 2026-05-07 09:14 | 39.93253 | 20.75454 | 34176 ft | 470 kts | 316° |
| 2026-05-07 09:14 | 39.98209 | 20.69837 | 34169 ft | 471 kts | 316° |
| 2026-05-07 09:15 | 40.03145 | 20.64232 | 34167 ft | 470 kts | 316° |
| 2026-05-07 09:15 | 40.08172 | 20.58802 | 34156 ft | 470 kts | 322° |
| 2026-05-07 09:16 | 40.13755 | 20.54343 | 34172 ft | 471 kts | 327° |
| 2026-05-07 09:16 | 40.19421 | 20.50017 | 34174 ft | 473 kts | 327° |
| 2026-05-07 09:17 | 40.25107 | 20.45633 | 34162 ft | 476 kts | 327° |
| 2026-05-07 09:17 | 40.30820 | 20.41179 | 34170 ft | 480 kts | 326° |
| 2026-05-07 09:18 | 40.36536 | 20.36701 | 34184 ft | 483 kts | 326° |
| 2026-05-07 09:18 | 40.42320 | 20.32159 | 34158 ft | 486 kts | 326° |
| 2026-05-07 09:19 | 40.48129 | 20.27590 | 34167 ft | 487 kts | 326° |
| 2026-05-07 09:19 | 40.53948 | 20.23006 | 34157 ft | 488 kts | 326° |
| 2026-05-07 09:20 | 40.59768 | 20.18411 | 34150 ft | 487 kts | 326° |
| 2026-05-07 09:20 | 40.65571 | 20.13818 | 34146 ft | 487 kts | 325° |
| 2026-05-07 09:21 | 40.71372 | 20.09220 | 34152 ft | 485 kts | 325° |
| 2026-05-07 09:21 | 40.77143 | 20.04637 | 34131 ft | 484 kts | 325° |
| 2026-05-07 09:22 | 40.82896 | 20.00058 | 34139 ft | 482 kts | 325° |
| 2026-05-07 09:22 | 40.88630 | 19.95483 | 34140 ft | 482 kts | 325° |
| 2026-05-07 09:23 | 40.94360 | 19.90901 | 34133 ft | 481 kts | 325° |
| 2026-05-07 09:23 | 41.00088 | 19.86312 | 34140 ft | 481 kts | 325° |
| 2026-05-07 09:24 | 41.05824 | 19.81708 | 34144 ft | 483 kts | 325° |
| 2026-05-07 09:24 | 41.11566 | 19.77090 | 34138 ft | 481 kts | 325° |
| 2026-05-07 09:25 | 41.17260 | 19.72502 | 34105 ft | 476 kts | 325° |
| 2026-05-07 09:25 | 41.22892 | 19.67955 | 34120 ft | 472 kts | 325° |
| 2026-05-07 09:26 | 41.28488 | 19.63426 | 34127 ft | 470 kts | 325° |
| 2026-05-07 09:26 | 41.34084 | 19.58886 | 34138 ft | 471 kts | 325° |
| 2026-05-07 09:27 | 41.39687 | 19.54331 | 34142 ft | 472 kts | 325° |
| 2026-05-07 09:28 | 41.48116 | 19.47463 | 34134 ft | 475 kts | 325° |
| 2026-05-07 09:28 | 41.53728 | 19.42878 | 34127 ft | 478 kts | 325° |
| 2026-05-07 09:29 | 41.59425 | 19.38215 | 34133 ft | 482 kts | 325° |
| 2026-05-07 09:29 | 41.65159 | 19.33512 | 34129 ft | 486 kts | 325° |
| 2026-05-07 09:30 | 41.70924 | 19.28774 | 34128 ft | 487 kts | 325° |
| 2026-05-07 09:30 | 41.76699 | 19.24019 | 34122 ft | 487 kts | 325° |
| 2026-05-07 09:31 | 41.82453 | 19.19271 | 34132 ft | 485 kts | 324° |
| 2026-05-07 09:31 | 41.88191 | 19.14525 | 34120 ft | 483 kts | 324° |
| 2026-05-07 09:32 | 41.93895 | 19.09796 | 34134 ft | 481 kts | 324° |
| 2026-05-07 09:32 | 41.99584 | 19.05070 | 34132 ft | 480 kts | 324° |
| 2026-05-07 09:33 | 42.05261 | 19.00343 | 34127 ft | 480 kts | 324° |
| 2026-05-07 09:33 | 42.10947 | 18.95598 | 34120 ft | 481 kts | 324° |
| 2026-05-07 09:34 | 42.16634 | 18.90843 | 34135 ft | 481 kts | 324° |
| 2026-05-07 09:34 | 42.22329 | 18.86071 | 34137 ft | 482 kts | 324° |
| 2026-05-07 09:35 | 42.28025 | 18.81289 | 34140 ft | 482 kts | 324° |
| 2026-05-07 09:35 | 42.33695 | 18.76518 | 34152 ft | 483 kts | 324° |
| 2026-05-07 09:36 | 42.39383 | 18.71725 | 34114 ft | 481 kts | 324° |
| 2026-05-07 09:36 | 42.45048 | 18.66937 | 34097 ft | 479 kts | 323° |
| 2026-05-07 09:37 | 42.49770 | 18.62940 | 34104 ft | 477 kts | 323° |
| 2026-05-07 09:37 | 42.55371 | 18.58186 | 34114 ft | 475 kts | 323° |
| 2026-05-07 09:38 | 42.61025 | 18.53372 | 34108 ft | 482 kts | 323° |
| 2026-05-07 09:38 | 42.67602 | 18.47769 | 34100 ft | 479 kts | 323° |
| 2026-05-07 09:39 | 42.72317 | 18.43742 | 34134 ft | 477 kts | 323° |
| 2026-05-07 09:39 | 42.77944 | 18.38923 | 34114 ft | 478 kts | 323° |
| 2026-05-07 09:40 | 42.83571 | 18.34097 | 34111 ft | 478 kts | 323° |
| 2026-05-07 09:40 | 42.89193 | 18.29265 | 34123 ft | 478 kts | 323° |
| 2026-05-07 09:41 | 42.94823 | 18.24416 | 34119 ft | 478 kts | 323° |
| 2026-05-07 09:41 | 43.00412 | 18.19591 | 34111 ft | 478 kts | 323° |
| 2026-05-07 09:42 | 43.06077 | 18.14689 | 34117 ft | 478 kts | 323° |
| 2026-05-07 09:42 | 43.11661 | 18.09846 | 34093 ft | 479 kts | 323° |
| 2026-05-07 09:43 | 43.17288 | 18.04954 | 34098 ft | 479 kts | 323° |
| 2026-05-07 09:43 | 43.22902 | 18.00066 | 34079 ft | 477 kts | 323° |
| 2026-05-07 09:44 | 43.28495 | 17.95184 | 34083 ft | 475 kts | 322° |
| 2026-05-07 09:44 | 43.34065 | 17.90311 | 34084 ft | 475 kts | 322° |
| 2026-05-07 09:45 | 43.39632 | 17.85427 | 34082 ft | 474 kts | 322° |
| 2026-05-07 09:45 | 43.45187 | 17.80542 | 34081 ft | 474 kts | 322° |
| 2026-05-07 09:46 | 43.50735 | 17.75653 | 34104 ft | 473 kts | 322° |
| 2026-05-07 09:46 | 43.56302 | 17.70745 | 34100 ft | 475 kts | 323° |
| 2026-05-07 09:47 | 43.61857 | 17.65831 | 34142 ft | 474 kts | 323° |
| 2026-05-07 09:47 | 43.67419 | 17.60897 | 34097 ft | 475 kts | 322° |
| 2026-05-07 09:48 | 43.72977 | 17.55960 | 34094 ft | 474 kts | 322° |
| 2026-05-07 09:48 | 43.78320 | 17.50786 | 34119 ft | 470 kts | 317° |
| 2026-05-07 09:49 | 43.83496 | 17.45183 | 34110 ft | 469 kts | 317° |
| 2026-05-07 09:49 | 43.88635 | 17.39578 | 34100 ft | 470 kts | 317° |
| 2026-05-07 09:50 | 43.91694 | 17.36254 | 34092 ft | 471 kts | 317° |
| 2026-05-07 09:50 | 43.96856 | 17.30658 | 34081 ft | 471 kts | 317° |
| 2026-05-07 09:51 | 44.02017 | 17.25060 | 34088 ft | 470 kts | 317° |
| 2026-05-07 09:51 | 44.07178 | 17.19452 | 34090 ft | 469 kts | 317° |
| 2026-05-07 09:52 | 44.12267 | 17.13909 | 34076 ft | 467 kts | 317° |
| 2026-05-07 09:52 | 44.17366 | 17.08337 | 34073 ft | 465 kts | 317° |
| 2026-05-07 09:53 | 44.22442 | 17.02779 | 34066 ft | 463 kts | 316° |
| 2026-05-07 09:53 | 44.27511 | 16.97216 | 34084 ft | 464 kts | 316° |
| 2026-05-07 09:54 | 44.32579 | 16.91643 | 34064 ft | 463 kts | 316° |
| 2026-05-07 09:54 | 44.37630 | 16.86076 | 34056 ft | 462 kts | 316° |
| 2026-05-07 09:55 | 44.42663 | 16.80515 | 34060 ft | 460 kts | 316° |
| 2026-05-07 09:55 | 44.47691 | 16.74946 | 34054 ft | 461 kts | 316° |
| 2026-05-07 09:56 | 44.52720 | 16.69366 | 34043 ft | 461 kts | 316° |
| 2026-05-07 09:56 | 44.57741 | 16.63782 | 34049 ft | 461 kts | 316° |
| 2026-05-07 09:57 | 44.62766 | 16.58179 | 34038 ft | 462 kts | 316° |
| 2026-05-07 09:57 | 44.67792 | 16.52563 | 34058 ft | 462 kts | 316° |
| 2026-05-07 09:58 | 44.72831 | 16.46919 | 34091 ft | 464 kts | 315° |
| 2026-05-07 09:58 | 44.77890 | 16.41240 | 34053 ft | 465 kts | 315° |
| 2026-05-07 09:59 | 44.82941 | 16.35560 | 34052 ft | 464 kts | 315° |
| 2026-05-07 09:59 | 44.87982 | 16.29874 | 34036 ft | 463 kts | 315° |
| 2026-05-07 10:00 | 44.92994 | 16.24201 | 34037 ft | 461 kts | 315° |
| 2026-05-07 10:00 | 44.97991 | 16.18541 | 34047 ft | 461 kts | 314° |
| 2026-05-07 10:01 | 45.02960 | 16.12902 | 34059 ft | 461 kts | 314° |
| 2026-05-07 10:01 | 45.07952 | 16.07223 | 34042 ft | 461 kts | 314° |
| 2026-05-07 10:02 | 45.12950 | 16.01521 | 34036 ft | 461 kts | 314° |
| 2026-05-07 10:02 | 45.17942 | 15.95813 | 34059 ft | 461 kts | 314° |
| 2026-05-07 10:03 | 45.22960 | 15.90109 | 34030 ft | 465 kts | 315° |
| 2026-05-07 10:03 | 45.28253 | 15.84740 | 34034 ft | 469 kts | 317° |
| 2026-05-07 10:04 | 45.33615 | 15.79453 | 34029 ft | 469 kts | 317° |
| 2026-05-07 10:04 | 45.38966 | 15.74130 | 34026 ft | 469 kts | 317° |
| 2026-05-07 10:05 | 45.44290 | 15.68783 | 34055 ft | 469 kts | 316° |
| 2026-05-07 10:05 | 45.49621 | 15.63406 | 34031 ft | 470 kts | 316° |
| 2026-05-07 10:06 | 45.54957 | 15.58012 | 34024 ft | 470 kts | 316° |
| 2026-05-07 10:06 | 45.60306 | 15.52595 | 34021 ft | 474 kts | 316° |
| 2026-05-07 10:07 | 45.65701 | 15.47117 | 34016 ft | 477 kts | 317° |
| 2026-05-07 10:07 | 45.71089 | 15.41645 | 33981 ft | 472 kts | 317° |
| 2026-05-07 10:08 | 45.76387 | 15.36242 | 34018 ft | 465 kts | 316° |
| 2026-05-07 10:08 | 45.81574 | 15.30729 | 34063 ft | 466 kts | 314° |
| 2026-05-07 10:09 | 45.86732 | 15.24981 | 34022 ft | 469 kts | 314° |
| 2026-05-07 10:09 | 45.91841 | 15.19290 | 34018 ft | 467 kts | 314° |
| 2026-05-07 10:10 | 45.96970 | 15.13592 | 34026 ft | 466 kts | 315° |
| 2026-05-07 10:10 | 46.02100 | 15.07893 | 34017 ft | 466 kts | 315° |
| 2026-05-07 10:11 | 46.07228 | 15.02192 | 33998 ft | 466 kts | 315° |
| 2026-05-07 10:11 | 46.12357 | 14.96475 | 34008 ft | 466 kts | 315° |
| 2026-05-07 10:12 | 46.17471 | 14.90751 | 34003 ft | 465 kts | 314° |
| 2026-05-07 10:12 | 46.22593 | 14.85000 | 34000 ft | 468 kts | 315° |
| 2026-05-07 10:13 | 46.27742 | 14.79215 | 33991 ft | 470 kts | 315° |
| 2026-05-07 10:13 | 46.32912 | 14.73393 | 33993 ft | 471 kts | 315° |
| 2026-05-07 10:14 | 46.38085 | 14.67556 | 33988 ft | 471 kts | 315° |
| 2026-05-07 10:14 | 46.43240 | 14.61727 | 33983 ft | 468 kts | 314° |
| 2026-05-07 10:15 | 46.48369 | 14.55900 | 33972 ft | 468 kts | 314° |
| 2026-05-07 10:15 | 46.53474 | 14.50099 | 33980 ft | 466 kts | 314° |
| 2026-05-07 10:16 | 46.58571 | 14.44296 | 33989 ft | 466 kts | 314° |
| 2026-05-07 10:16 | 46.63687 | 14.38436 | 33973 ft | 470 kts | 314° |
| 2026-05-07 10:17 | 46.68838 | 14.32521 | 34031 ft | 473 kts | 314° |
| 2026-05-07 10:17 | 46.73993 | 14.26598 | 33986 ft | 476 kts | 314° |
| 2026-05-07 10:18 | 46.79206 | 14.20597 | 33961 ft | 476 kts | 314° |
| 2026-05-07 10:18 | 46.84396 | 14.14607 | 33977 ft | 474 kts | 314° |
| 2026-05-07 10:19 | 46.89561 | 14.08629 | 33954 ft | 472 kts | 314° |
| 2026-05-07 10:19 | 46.94701 | 14.02676 | 34012 ft | 471 kts | 314° |
| 2026-05-07 10:20 | 46.99793 | 13.96755 | 33949 ft | 459 kts | 314° |
| 2026-05-07 10:20 | 47.02255 | 13.93891 | 33936 ft | 447 kts | 313° |
| 2026-05-07 10:20 | 47.04685 | 13.91055 | 33498 ft | 445 kts | 313° |
| 2026-05-07 10:20 | 47.07091 | 13.88243 | 33095 ft | 438 kts | 313° |
| 2026-05-07 10:21 | 47.09460 | 13.85469 | 32712 ft | 434 kts | 313° |
| 2026-05-07 10:21 | 47.11016 | 13.83644 | 32403 ft | 432 kts | 313° |
| 2026-05-07 10:21 | 47.13359 | 13.80896 | 31958 ft | 430 kts | 313° |
| 2026-05-07 10:21 | 47.15689 | 13.78160 | 31532 ft | 427 kts | 312° |
| 2026-05-07 10:22 | 47.17993 | 13.75451 | 31084 ft | 424 kts | 312° |
| 2026-05-07 10:22 | 47.20285 | 13.72753 | 30748 ft | 421 kts | 313° |
| 2026-05-07 10:22 | 47.22566 | 13.70061 | 30265 ft | 420 kts | 313° |
| 2026-05-07 10:22 | 47.24853 | 13.67360 | 29772 ft | 421 kts | 313° |
| 2026-05-07 10:23 | 47.27145 | 13.64649 | 29422 ft | 422 kts | 313° |
| 2026-05-07 10:23 | 47.29419 | 13.61959 | 29219 ft | 418 kts | 313° |
| 2026-05-07 10:23 | 47.31680 | 13.59290 | 28968 ft | 415 kts | 313° |
| 2026-05-07 10:23 | 47.33936 | 13.56632 | 28492 ft | 414 kts | 313° |
| 2026-05-07 10:24 | 47.36168 | 13.53988 | 28066 ft | 409 kts | 313° |
| 2026-05-07 10:24 | 47.38368 | 13.51375 | 27661 ft | 405 kts | 313° |
| 2026-05-07 10:24 | 47.40563 | 13.48761 | 27218 ft | 404 kts | 313° |
| 2026-05-07 10:24 | 47.42744 | 13.46161 | 26756 ft | 403 kts | 313° |
| 2026-05-07 10:25 | 47.44924 | 13.43563 | 26407 ft | 403 kts | 314° |
| 2026-05-07 10:25 | 47.47099 | 13.40968 | 25944 ft | 402 kts | 314° |
| 2026-05-07 10:25 | 47.49273 | 13.38375 | 25507 ft | 399 kts | 315° |
| 2026-05-07 10:25 | 47.51398 | 13.35827 | 25099 ft | 397 kts | 315° |
| 2026-05-07 10:26 | 47.53534 | 13.33251 | 24644 ft | 395 kts | 315° |
| 2026-05-07 10:26 | 47.55651 | 13.30690 | 24230 ft | 390 kts | 315° |
| 2026-05-07 10:26 | 47.57742 | 13.28152 | 23839 ft | 389 kts | 315° |
| 2026-05-07 10:26 | 47.59835 | 13.25608 | 23349 ft | 388 kts | 315° |
| 2026-05-07 10:27 | 47.61920 | 13.23074 | 22874 ft | 385 kts | 316° |
| 2026-05-07 10:27 | 47.63976 | 13.20574 | 22454 ft | 382 kts | 316° |
| 2026-05-07 10:27 | 47.66025 | 13.18082 | 22030 ft | 378 kts | 316° |
| 2026-05-07 10:27 | 47.68049 | 13.15616 | 21625 ft | 375 kts | 316° |
| 2026-05-07 10:28 | 47.70061 | 13.13164 | 21199 ft | 373 kts | 316° |
| 2026-05-07 10:28 | 47.72060 | 13.10725 | 20803 ft | 370 kts | 316° |
| 2026-05-07 10:28 | 47.74047 | 13.08298 | 20386 ft | 368 kts | 316° |
| 2026-05-07 10:28 | 47.76011 | 13.05891 | 19973 ft | 365 kts | 316° |
| 2026-05-07 10:29 | 47.77962 | 13.03490 | 19559 ft | 363 kts | 316° |
| 2026-05-07 10:29 | 47.79897 | 13.01099 | 19151 ft | 360 kts | 316° |
| 2026-05-07 10:29 | 47.81815 | 12.98717 | 18741 ft | 358 kts | 316° |
| 2026-05-07 10:30 | 47.85581 | 12.94004 | 17891 ft | 354 kts | 316° |
| 2026-05-07 10:30 | 47.87455 | 12.91646 | 17464 ft | 351 kts | 316° |
| 2026-05-07 10:30 | 47.89312 | 12.89304 | 17046 ft | 348 kts | 316° |
| 2026-05-07 10:30 | 47.91154 | 12.86977 | 16652 ft | 345 kts | 316° |
| 2026-05-07 10:31 | 47.92973 | 12.84676 | 16248 ft | 342 kts | 316° |
| 2026-05-07 10:31 | 47.94776 | 12.82396 | 15858 ft | 339 kts | 316° |
| 2026-05-07 10:31 | 47.96574 | 12.80127 | 15471 ft | 337 kts | 316° |
| 2026-05-07 10:31 | 47.98362 | 12.77893 | 15075 ft | 334 kts | 316° |
| 2026-05-07 10:32 | 48.00145 | 12.75676 | 14706 ft | 333 kts | 316° |
| 2026-05-07 10:32 | 48.01924 | 12.73472 | 14362 ft | 332 kts | 316° |
| 2026-05-07 10:32 | 48.03703 | 12.71268 | 14000 ft | 331 kts | 316° |
| 2026-05-07 10:32 | 48.05468 | 12.69089 | 13672 ft | 327 kts | 316° |
| 2026-05-07 10:33 | 48.07203 | 12.66948 | 13368 ft | 323 kts | 316° |
| 2026-05-07 10:33 | 48.08914 | 12.64841 | 13145 ft | 316 kts | 316° |
| 2026-05-07 10:33 | 48.10590 | 12.62784 | 12959 ft | 308 kts | 316° |
| 2026-05-07 10:33 | 48.12234 | 12.60772 | 12678 ft | 304 kts | 316° |
| 2026-05-07 10:34 | 48.13879 | 12.58755 | 12133 ft | 308 kts | 316° |
| 2026-05-07 10:34 | 48.15526 | 12.56734 | 11759 ft | 304 kts | 316° |
| 2026-05-07 10:34 | 48.17152 | 12.54739 | 11477 ft | 300 kts | 316° |
| 2026-05-07 10:34 | 48.18753 | 12.52780 | 11189 ft | 296 kts | 316° |
| 2026-05-07 10:35 | 48.20344 | 12.50834 | 10849 ft | 294 kts | 316° |
| 2026-05-07 10:35 | 48.21926 | 12.48899 | 10521 ft | 292 kts | 316° |
| 2026-05-07 10:35 | 48.23475 | 12.47012 | 10171 ft | 282 kts | 316° |
| 2026-05-07 10:35 | 48.25004 | 12.45153 | 9731 ft | 283 kts | 316° |
| 2026-05-07 10:36 | 48.26518 | 12.43313 | 9491 ft | 278 kts | 316° |
| 2026-05-07 10:36 | 48.28020 | 12.41488 | 9183 ft | 276 kts | 316° |
| 2026-05-07 10:36 | 48.29498 | 12.39691 | 8806 ft | 277 kts | 316° |
| 2026-05-07 10:36 | 48.30985 | 12.37876 | 8541 ft | 274 kts | 316° |
| 2026-05-07 10:37 | 48.32456 | 12.36079 | 8266 ft | 271 kts | 316° |
| 2026-05-07 10:37 | 48.33809 | 12.34172 | 7852 ft | 263 kts | 303° |
| 2026-05-07 10:37 | 48.34784 | 12.31850 | 7447 ft | 263 kts | 296° |
| 2026-05-07 10:37 | 48.35655 | 12.29427 | 7057 ft | 265 kts | 294° |
| 2026-05-07 10:38 | 48.36516 | 12.26969 | 6668 ft | 266 kts | 294° |
| 2026-05-07 10:38 | 48.37300 | 12.24482 | 6263 ft | 260 kts | 284° |
| 2026-05-07 10:38 | 48.37483 | 12.21805 | 5900 ft | 258 kts | 268° |
| 2026-05-07 10:38 | 48.37408 | 12.19115 | 5657 ft | 255 kts | 265° |
| 2026-05-07 10:39 | 48.37244 | 12.16493 | 5583 ft | 249 kts | 263° |
| 2026-05-07 10:39 | 48.37048 | 12.13920 | 5539 ft | 245 kts | 263° |
| 2026-05-07 10:39 | 48.36853 | 12.11407 | 5465 ft | 236 kts | 263° |
| 2026-05-07 10:39 | 48.36669 | 12.09023 | 5231 ft | 224 kts | 263° |
| 2026-05-07 10:40 | 48.36494 | 12.06749 | 4962 ft | 214 kts | 263° |
| 2026-05-07 10:40 | 48.36323 | 12.04530 | 4679 ft | 211 kts | 264° |
| 2026-05-07 10:40 | 48.36160 | 12.02402 | 4378 ft | 199 kts | 264° |
| 2026-05-07 10:40 | 48.36003 | 12.00346 | 4148 ft | 197 kts | 264° |
| 2026-05-07 10:41 | 48.35848 | 11.98328 | 3889 ft | 192 kts | 264° |
| 2026-05-07 10:41 | 48.35700 | 11.96394 | 3607 ft | 180 kts | 264° |
| 2026-05-07 10:41 | 48.35561 | 11.94591 | 3415 ft | 166 kts | 264° |
| 2026-05-07 10:41 | 48.35436 | 11.92950 | 3182 ft | 155 kts | 264° |
| 2026-05-07 10:42 | 48.35316 | 11.91392 | 2963 ft | 141 kts | 265° |
| 2026-05-07 10:42 | 48.35204 | 11.89915 | 2809 ft | 142 kts | 265° |
| 2026-05-07 10:42 | 48.35092 | 11.88451 | 2588 ft | 140 kts | 264° |
| 2026-05-07 10:42 | 48.34977 | 11.86999 | 2374 ft | 142 kts | 263° |
| 2026-05-07 10:43 | 48.34853 | 11.85493 | 2222 ft | 143 kts | 264° |
| 2026-05-07 10:43 | 48.34746 | 11.84020 | 2016 ft | 142 kts | 264° |
| 2026-05-07 10:43 | 48.34636 | 11.82519 | 1781 ft | 147 kts | 264° |
| 2026-05-07 10:43 | 48.34520 | 11.81039 | 1619 ft | 140 kts | 264° |
| 2026-05-07 10:44 | 48.34415 | 11.79624 | 1483 ft | 131 kts | 263° |
| 2026-05-07 10:44 | 48.34328 | 11.78484 | 1488 ft | 84 kts | 263° |
| 2026-05-07 10:44 | 48.34281 | 11.77876 | 1490 ft | 42 kts | 263° |
| 2026-05-07 10:44 | 48.34251 | 11.77464 | 1480 ft | 36 kts | 267° |
| 2026-05-07 10:45 | 48.34289 | 11.77155 | 1479 ft | 25 kts | 294° |
| 2026-05-07 10:45 | 48.34327 | 11.77021 | 1479 ft | 10 kts | 293° |
| 2026-05-07 10:45 | 48.34354 | 11.76926 | 1478 ft | 11 kts | 293° |
| 2026-05-07 10:45 | 48.34383 | 11.76825 | 1479 ft | 8 kts | 293° |
| 2026-05-07 10:46 | 48.34416 | 11.76753 | 1478 ft | 10 kts | 313° |
| 2026-05-07 10:46 | 48.34480 | 11.76707 | 1483 ft | 10 kts | 346° |
| 2026-05-07 10:46 | 48.34548 | 11.76702 | 1480 ft | 10 kts | 22° |
| 2026-05-07 10:46 | 48.34578 | 11.76792 | 1480 ft | 10 kts | 81° |
| 2026-05-07 10:47 | 48.34588 | 11.76917 | 1483 ft | 13 kts | 83° |
| 2026-05-07 10:47 | 48.34598 | 11.77049 | 1480 ft | 13 kts | 83° |
| 2026-05-07 10:47 | 48.34609 | 11.77183 | 1487 ft | 13 kts | 83° |
| 2026-05-07 10:47 | 48.34620 | 11.77321 | 1480 ft | 13 kts | 82° |
| 2026-05-07 10:48 | 48.34630 | 11.77464 | 1482 ft | 15 kts | 84° |
| 2026-05-07 10:48 | 48.34642 | 11.77622 | 1486 ft | 15 kts | 83° |
| 2026-05-07 10:48 | 48.34654 | 11.77781 | 1480 ft | 15 kts | 84° |
| 2026-05-07 10:48 | 48.34679 | 11.77884 | 1485 ft | 6 kts | 27° |
| 2026-05-07 10:49 | 48.34713 | 11.77893 | 1480 ft | 2 kts | 353° |
| 2026-05-07 10:49 | 48.34847 | 11.77868 | 1490 ft | 0 kts | 353° |
| 2026-05-07 10:49 | 48.34883 | 11.77862 | 1484 ft | 10 kts | 354° |
| 2026-05-07 10:49 | 48.34955 | 11.77850 | 1487 ft | 10 kts | 353° |
| 2026-05-07 10:50 | 48.35028 | 11.77838 | 1479 ft | 10 kts | 353° |
| 2026-05-07 10:50 | 48.35100 | 11.77826 | 1482 ft | 10 kts | 353° |
| 2026-05-07 10:50 | 48.35172 | 11.77813 | 1483 ft | 10 kts | 353° |
| 2026-05-07 10:50 | 48.35245 | 11.77800 | 1480 ft | 10 kts | 353° |
| 2026-05-07 10:51 | 48.35312 | 11.77814 | 1482 ft | 10 kts | 38° |
| 2026-05-07 10:51 | 48.35336 | 11.77912 | 1488 ft | 10 kts | 80° |
| 2026-05-07 10:51 | 48.35346 | 11.78016 | 1478 ft | 10 kts | 83° |
| 2026-05-07 10:51 | 48.35344 | 11.78120 | 1479 ft | 10 kts | 114° |
| 2026-05-07 10:52 | 48.35316 | 11.78203 | 1479 ft | 9 kts | 100° |
| 2026-05-07 10:52 | 48.35318 | 11.78276 | 1483 ft | 4 kts | 84° |
| 2026-05-07 10:52 | 48.35319 | 11.78301 | 1490 ft | 0 kts | 84° |
| 2026-05-07 10:52 | 48.35320 | 11.78304 | 1490 ft | 0 kts | 84° |